
Distance (Route):
Temperature : 15.6°C
Humidity : 0%
Pressure : 0hPa| Receiver | Frames | First received | Last received |
|---|---|---|---|
| ARGUS2 | 484 | 2026-08-30 11:06:05 | 2026-08-30 14:09:29 |
| Receiver | Date | Latitude | Longitude | Direction | Speed | Altitude | Climb | Temperature | Humidity | Pressure | Voltage | Killtimer | Uptime | BKT | XDATA |
|---|---|---|---|---|---|---|---|---|---|---|---|---|---|---|---|
| ARGUS2 | 2026-08-30 14:09:29 | 27.76748 | -83.19682 | 318° | 9km/h | 1889m | -9.8m/s | 15.6°C | 0% | 0hPa | 0V | 00:00:00 | 00:00:00 | 00:00:00 | |
| ARGUS2 | 2026-08-30 14:09:09 | 27.76721 | -83.19656 | 334° | 5km/h | 2079m | -8.6m/s | 14.7°C | 0% | 0hPa | 0V | 00:00:00 | 00:00:00 | 00:00:00 | |
| ARGUS2 | 2026-08-30 14:08:43 | 27.76692 | -83.19634 | 352° | 4km/h | 2252m | -4.9m/s | 14.0°C | 0% | 0hPa | 0V | 00:00:00 | 00:00:00 | 00:00:00 | |
| ARGUS2 | 2026-08-30 14:08:17 | 27.76673 | -83.19640 | 36° | 4km/h | 2370m | -4.2m/s | 13.6°C | 0% | 0hPa | 0V | 00:00:00 | 00:00:00 | 00:00:00 | |
| ARGUS2 | 2026-08-30 14:07:51 | 27.76673 | -83.19648 | 133° | 4km/h | 2515m | -5.6m/s | 13.0°C | 0% | 0hPa | 0V | 00:00:00 | 00:00:00 | 00:00:00 | |
| ARGUS2 | 2026-08-30 14:07:28 | 27.76692 | -83.19666 | 147° | 5km/h | 2643m | -5.4m/s | 12.0°C | 0% | 0hPa | 0V | 00:00:00 | 00:00:00 | 00:00:00 | |
| ARGUS2 | 2026-08-30 14:07:08 | 27.76718 | -83.19663 | 229° | 5km/h | 2756m | -4.7m/s | 11.6°C | 0% | 0hPa | 0V | 00:00:00 | 00:00:00 | 00:00:00 | |
| ARGUS2 | 2026-08-30 14:06:47 | 27.76737 | -83.19617 | 255° | 11km/h | 2854m | -4.9m/s | 11.3°C | 0% | 0hPa | 0V | 00:00:00 | 00:00:00 | 00:00:00 | |
| ARGUS2 | 2026-08-30 14:06:27 | 27.76746 | -83.19556 | 269° | 9km/h | 2958m | -4.9m/s | 10.3°C | 0% | 0hPa | 0V | 00:00:00 | 00:00:00 | 00:00:00 | |
| ARGUS2 | 2026-08-30 14:05:45 | 27.76728 | -83.19453 | 279° | 7km/h | 3158m | -4.3m/s | 8.6°C | 0% | 0hPa | 0V | 00:00:00 | 00:00:00 | 00:00:00 | |
| ARGUS2 | 2026-08-30 14:05:25 | 27.76723 | -83.19427 | 352° | 2km/h | 3252m | -4.7m/s | 8.1°C | 0% | 0hPa | 0V | 00:00:00 | 00:00:00 | 00:00:00 | |
| ARGUS2 | 2026-08-30 14:05:05 | 27.76697 | -83.19436 | 35° | 9km/h | 3352m | -4.8m/s | 8.0°C | 0% | 0hPa | 0V | 00:00:00 | 00:00:00 | 00:00:00 | |
| ARGUS2 | 2026-08-30 14:04:43 | 27.76683 | -83.19462 | 100° | 4km/h | 3457m | -5.0m/s | 7.4°C | 0% | 0hPa | 0V | 00:00:00 | 00:00:00 | 00:00:00 | |
| ARGUS2 | 2026-08-30 14:04:22 | 27.76688 | -83.19491 | 115° | 5km/h | 3565m | -4.9m/s | 6.4°C | 0% | 0hPa | 0V | 00:00:00 | 00:00:00 | 00:00:00 | |
| ARGUS2 | 2026-08-30 14:04:01 | 27.76706 | -83.19511 | 164° | 5km/h | 3676m | -4.9m/s | 5.6°C | 0% | 0hPa | 0V | 00:00:00 | 00:00:00 | 00:00:00 | |
| ARGUS2 | 2026-08-30 14:03:37 | 27.76722 | -83.19514 | 248° | 2km/h | 3790m | -4.9m/s | 4.8°C | 0% | 0hPa | 0V | 00:00:00 | 00:00:00 | 00:00:00 | |
| ARGUS2 | 2026-08-30 14:02:28 | 27.76663 | -83.19550 | 22° | 7km/h | 4137m | -4.5m/s | 2.3°C | 0% | 0hPa | 0V | 00:00:00 | 00:00:00 | 00:00:00 | |
| ARGUS2 | 2026-08-30 14:02:07 | 27.76632 | -83.19561 | 18° | 4km/h | 4243m | -4.7m/s | 1.8°C | 0% | 0hPa | 0V | 00:00:00 | 00:00:00 | 00:00:00 | |
| ARGUS2 | 2026-08-30 14:01:46 | 27.76616 | -83.19566 | 48° | 2km/h | 4353m | -5.0m/s | 1.3°C | 0% | 0hPa | 0V | 00:00:00 | 00:00:00 | 00:00:00 | |
| ARGUS2 | 2026-08-30 14:01:26 | 27.76616 | -83.19582 | 102° | 4km/h | 4460m | -5.3m/s | 0.9°C | 0% | 0hPa | 0V | 00:00:00 | 00:00:00 | 00:00:00 | |
| ARGUS2 | 2026-08-30 14:01:05 | 27.76620 | -83.19595 | 201° | 4km/h | 4572m | -5.2m/s | 0.2°C | 0% | 0hPa | 0V | 00:00:00 | 00:00:00 | 00:00:00 | |
| ARGUS2 | 2026-08-30 14:00:44 | 27.76636 | -83.19575 | 237° | 7km/h | 4685m | -5.1m/s | -0.2°C | 0% | 0hPa | 0V | 00:00:00 | 00:00:00 | 00:00:00 | |
| ARGUS2 | 2026-08-30 14:00:22 | 27.76651 | -83.19541 | 248° | 7km/h | 4804m | -5.3m/s | -0.7°C | 0% | 0hPa | 0V | 00:00:00 | 00:00:00 | 00:00:00 | |
| ARGUS2 | 2026-08-30 13:59:42 | 27.76684 | -83.19440 | 248° | 9km/h | 5028m | -5.5m/s | -2.2°C | 0% | 0hPa | 0V | 00:00:00 | 00:00:00 | 00:00:00 | |
| ARGUS2 | 2026-08-30 13:59:21 | 27.76710 | -83.19386 | 249° | 13km/h | 5136m | -5.6m/s | -2.5°C | 0% | 0hPa | 0V | 00:00:00 | 00:00:00 | 00:00:00 | |
| ARGUS2 | 2026-08-30 13:59:00 | 27.76728 | -83.19314 | 263° | 13km/h | 5256m | -5.3m/s | -3.3°C | 0% | 0hPa | 0V | 00:00:00 | 00:00:00 | 00:00:00 | |
| ARGUS2 | 2026-08-30 13:58:39 | 27.76748 | -83.19245 | 241° | 13km/h | 5371m | -5.5m/s | -3.9°C | 0% | 0hPa | 0V | 00:00:00 | 00:00:00 | 00:00:00 | |
| ARGUS2 | 2026-08-30 13:58:18 | 27.76789 | -83.19173 | 240° | 13km/h | 5492m | -5.7m/s | -4.6°C | 0% | 0hPa | 0V | 00:00:00 | 00:00:00 | 00:00:00 | |
| ARGUS2 | 2026-08-30 13:57:57 | 27.76820 | -83.19111 | 240° | 9km/h | 5613m | -5.8m/s | -4.7°C | 0% | 0hPa | 0V | 00:00:00 | 00:00:00 | 00:00:00 | |
| ARGUS2 | 2026-08-30 13:57:37 | 27.76854 | -83.19042 | 247° | 16km/h | 5735m | -5.7m/s | -5.5°C | 0% | 0hPa | 0V | 00:00:00 | 00:00:00 | 00:00:00 | |
| ARGUS2 | 2026-08-30 13:57:16 | 27.76894 | -83.18958 | 245° | 16km/h | 5852m | -5.6m/s | -6.1°C | 0% | 0hPa | 0V | 00:00:00 | 00:00:00 | 00:00:00 | |
| ARGUS2 | 2026-08-30 13:56:56 | 27.76915 | -83.18884 | 270° | 9km/h | 5972m | -5.4m/s | -6.5°C | 0% | 0hPa | 0V | 00:00:00 | 00:00:00 | 00:00:00 | |
| ARGUS2 | 2026-08-30 13:56:34 | 27.76897 | -83.18831 | 299° | 15km/h | 6091m | -5.4m/s | -6.8°C | 0% | 0hPa | 0V | 00:00:00 | 00:00:00 | 00:00:00 | |
| ARGUS2 | 2026-08-30 13:56:13 | 27.76852 | -83.18752 | 306° | 16km/h | 6210m | -5.6m/s | -7.5°C | 0% | 0hPa | 0V | 00:00:00 | 00:00:00 | 00:00:00 | |
| ARGUS2 | 2026-08-30 13:55:52 | 27.76806 | -83.18667 | 294° | 16km/h | 6329m | -6.0m/s | -8.3°C | 0% | 0hPa | 0V | 00:00:00 | 00:00:00 | 00:00:00 | |
| ARGUS2 | 2026-08-30 13:52:05 | 27.76817 | -83.17587 | 250° | 22km/h | 7699m | -5.7m/s | -16.0°C | 0% | 0hPa | 0V | 00:00:00 | 00:00:00 | 00:00:00 | |
| ARGUS2 | 2026-08-30 13:51:44 | 27.76860 | -83.17474 | 242° | 20km/h | 7832m | -6.1m/s | -16.8°C | 0% | 0hPa | 0V | 00:00:00 | 00:00:00 | 00:00:00 | |
| ARGUS2 | 2026-08-30 13:51:23 | 27.76917 | -83.17374 | 232° | 20km/h | 7998m | -8.2m/s | -17.6°C | 0% | 0hPa | 0V | 00:00:00 | 00:00:00 | 00:00:00 | |
| ARGUS2 | 2026-08-30 13:50:42 | 27.77027 | -83.17220 | 237° | 16km/h | 8402m | -10.6m/s | -20.8°C | 0% | 0hPa | 0V | 00:00:00 | 00:00:00 | 00:00:00 | |
| ARGUS2 | 2026-08-30 13:50:22 | 27.77087 | -83.17132 | 235° | 18km/h | 8624m | -10.1m/s | -22.2°C | 0% | 0hPa | 0V | 00:00:00 | 00:00:00 | 00:00:00 | |
| ARGUS2 | 2026-08-30 13:50:01 | 27.77134 | -83.17045 | 241° | 18km/h | 8762m | -3.9m/s | -23.3°C | 0% | 0hPa | 0V | 00:00:00 | 00:00:00 | 00:00:00 | |
| ARGUS2 | 2026-08-30 13:49:41 | 27.77181 | -83.16957 | 239° | 16km/h | 8840m | -3.9m/s | -24.0°C | 0% | 0hPa | 0V | 00:00:00 | 00:00:00 | 00:00:00 | |
| ARGUS2 | 2026-08-30 13:49:20 | 27.77222 | -83.16883 | 238° | 16km/h | 8914m | -3.6m/s | -24.7°C | 0% | 0hPa | 0V | 00:00:00 | 00:00:00 | 00:00:00 | |
| ARGUS2 | 2026-08-30 13:49:00 | 27.77261 | -83.16805 | 242° | 15km/h | 8989m | -3.8m/s | -25.4°C | 0% | 0hPa | 0V | 00:00:00 | 00:00:00 | 00:00:00 | |
| ARGUS2 | 2026-08-30 13:48:39 | 27.77290 | -83.16736 | 238° | 11km/h | 9063m | -3.7m/s | -25.8°C | 0% | 0hPa | 0V | 00:00:00 | 00:00:00 | 00:00:00 | |
| ARGUS2 | 2026-08-30 13:48:19 | 27.77315 | -83.16672 | 241° | 11km/h | 9142m | -3.6m/s | -26.4°C | 0% | 0hPa | 0V | 00:00:00 | 00:00:00 | 00:00:00 | |
| ARGUS2 | 2026-08-30 13:47:37 | 27.77361 | -83.16533 | 248° | 11km/h | 9298m | -3.8m/s | -27.1°C | 0% | 0hPa | 0V | 00:00:00 | 00:00:00 | 00:00:00 | |
| ARGUS2 | 2026-08-30 13:47:16 | 27.77377 | -83.16464 | 269° | 11km/h | 9374m | -4.0m/s | -27.4°C | 0% | 0hPa | 0V | 00:00:00 | 00:00:00 | 00:00:00 | |
| ARGUS2 | 2026-08-30 13:46:56 | 27.77367 | -83.16405 | 291° | 11km/h | 9443m | -3.5m/s | -28.0°C | 0% | 0hPa | 0V | 00:00:00 | 00:00:00 | 00:00:00 | |
| ARGUS2 | 2026-08-30 13:46:36 | 27.77345 | -83.16342 | 294° | 11km/h | 9520m | -3.7m/s | -28.7°C | 0% | 0hPa | 0V | 00:00:00 | 00:00:00 | 00:00:00 | |
| ARGUS2 | 2026-08-30 13:46:15 | 27.77321 | -83.16291 | 305° | 9km/h | 9592m | -3.4m/s | -29.3°C | 0% | 0hPa | 0V | 00:00:00 | 00:00:00 | 00:00:00 | |
| ARGUS2 | 2026-08-30 13:45:55 | 27.77277 | -83.16240 | 323° | 13km/h | 9667m | -4.0m/s | -29.8°C | 0% | 0hPa | 0V | 00:00:00 | 00:00:00 | 00:00:00 | |
| ARGUS2 | 2026-08-30 13:45:34 | 27.77225 | -83.16190 | 305° | 15km/h | 9737m | -3.6m/s | -30.4°C | 0% | 0hPa | 0V | 00:00:00 | 00:00:00 | 00:00:00 | |
| ARGUS2 | 2026-08-30 13:45:14 | 27.77173 | -83.16117 | 307° | 16km/h | 9814m | -3.5m/s | -30.9°C | 0% | 0hPa | 0V | 00:00:00 | 00:00:00 | 00:00:00 | |
| ARGUS2 | 2026-08-30 13:44:53 | 27.77119 | -83.16046 | 315° | 16km/h | 9886m | -3.9m/s | -31.4°C | 0% | 0hPa | 0V | 00:00:00 | 00:00:00 | 00:00:00 | |
| ARGUS2 | 2026-08-30 13:44:33 | 27.77050 | -83.15973 | 322° | 18km/h | 9962m | -3.9m/s | -31.9°C | 0% | 0hPa | 0V | 00:00:00 | 00:00:00 | 00:00:00 | |
| ARGUS2 | 2026-08-30 13:44:11 | 27.76970 | -83.15900 | 321° | 18km/h | 10039m | -3.7m/s | -32.5°C | 0% | 0hPa | 0V | 00:00:00 | 00:00:00 | 00:00:00 | |
| ARGUS2 | 2026-08-30 13:43:50 | 27.76897 | -83.15810 | 309° | 20km/h | 10117m | -3.5m/s | -33.2°C | 0% | 0hPa | 0V | 00:00:00 | 00:00:00 | 00:00:00 | |
| ARGUS2 | 2026-08-30 13:43:29 | 27.76830 | -83.15706 | 302° | 22km/h | 10193m | -3.7m/s | -33.9°C | 0% | 0hPa | 0V | 00:00:00 | 00:00:00 | 00:00:00 | |
| ARGUS2 | 2026-08-30 13:43:09 | 27.76772 | -83.15601 | 301° | 18km/h | 10269m | -3.7m/s | -34.5°C | 0% | 0hPa | 0V | 00:00:00 | 00:00:00 | 00:00:00 | |
| ARGUS2 | 2026-08-30 13:42:48 | 27.76723 | -83.15504 | 302° | 16km/h | 10344m | -3.5m/s | -35.2°C | 0% | 0hPa | 0V | 00:00:00 | 00:00:00 | 00:00:00 | |
| ARGUS2 | 2026-08-30 13:42:28 | 27.76675 | -83.15410 | 310° | 16km/h | 10420m | -3.8m/s | -35.8°C | 0% | 0hPa | 0V | 00:00:00 | 00:00:00 | 00:00:00 | |
| ARGUS2 | 2026-08-30 13:42:07 | 27.76628 | -83.15333 | 306° | 16km/h | 10488m | -3.6m/s | -36.4°C | 0% | 0hPa | 0V | 00:00:00 | 00:00:00 | 00:00:00 | |
| ARGUS2 | 2026-08-30 13:41:47 | 27.76578 | -83.15244 | 299° | 20km/h | 10559m | -3.8m/s | -37.0°C | 0% | 0hPa | 0V | 00:00:00 | 00:00:00 | 00:00:00 | |
| ARGUS2 | 2026-08-30 13:41:25 | 27.76524 | -83.15147 | 302° | 20km/h | 10630m | -3.5m/s | -37.6°C | 0% | 0hPa | 0V | 00:00:00 | 00:00:00 | 00:00:00 | |
| ARGUS2 | 2026-08-30 13:41:09 | 27.76470 | -83.15053 | 304° | 20km/h | 10699m | -3.6m/s | -38.2°C | 0% | 0hPa | 0V | 00:00:00 | 00:00:00 | 00:00:00 | |
| ARGUS2 | 2026-08-30 13:40:46 | 27.76413 | -83.14951 | 303° | 20km/h | 10772m | -3.5m/s | -38.9°C | 0% | 0hPa | 0V | 00:00:00 | 00:00:00 | 00:00:00 | |
| ARGUS2 | 2026-08-30 13:40:38 | 27.76364 | -83.14855 | 302° | 18km/h | 10843m | -3.8m/s | -39.4°C | 0% | 0hPa | 0V | 00:00:00 | 00:00:00 | 00:00:00 | |
| ARGUS2 | 2026-08-30 13:40:03 | 27.76310 | -83.14758 | 309° | 18km/h | 10920m | -3.7m/s | -40.0°C | 0% | 0hPa | 0V | 00:00:00 | 00:00:00 | 00:00:00 | |
| ARGUS2 | 2026-08-30 13:39:43 | 27.76254 | -83.14677 | 311° | 18km/h | 10993m | -3.5m/s | -40.5°C | 0% | 0hPa | 0V | 00:00:00 | 00:00:00 | 00:00:00 | |
| ARGUS2 | 2026-08-30 13:39:23 | 27.76193 | -83.14603 | 314° | 16km/h | 11066m | -3.6m/s | -41.1°C | 0% | 0hPa | 0V | 00:00:00 | 00:00:00 | 00:00:00 | |
| ARGUS2 | 2026-08-30 13:39:02 | 27.76118 | -83.14526 | 322° | 22km/h | 11140m | -3.7m/s | -41.6°C | 0% | 0hPa | 0V | 00:00:00 | 00:00:00 | 00:00:00 | |
| ARGUS2 | 2026-08-30 13:38:42 | 27.76012 | -83.14432 | 320° | 26km/h | 11218m | -3.7m/s | -42.0°C | 0% | 0hPa | 0V | 00:00:00 | 00:00:00 | 00:00:00 | |
| ARGUS2 | 2026-08-30 13:38:20 | 27.75895 | -83.14335 | 328° | 29km/h | 11299m | -4.1m/s | -42.8°C | 0% | 0hPa | 0V | 00:00:00 | 00:00:00 | 00:00:00 | |
| ARGUS2 | 2026-08-30 13:37:59 | 27.75772 | -83.14237 | 327° | 29km/h | 11380m | -3.9m/s | -43.5°C | 0% | 0hPa | 0V | 00:00:00 | 00:00:00 | 00:00:00 | |
| ARGUS2 | 2026-08-30 13:37:37 | 27.75641 | -83.14128 | 325° | 29km/h | 11465m | -4.1m/s | -44.1°C | 0% | 0hPa | 0V | 00:00:00 | 00:00:00 | 00:00:00 | |
| ARGUS2 | 2026-08-30 13:37:16 | 27.75516 | -83.14027 | 325° | 27km/h | 11553m | -4.3m/s | -44.8°C | 0% | 0hPa | 0V | 00:00:00 | 00:00:00 | 00:00:00 | |
| ARGUS2 | 2026-08-30 13:36:55 | 27.75406 | -83.13934 | 320° | 27km/h | 11631m | -4.3m/s | -45.5°C | 0% | 0hPa | 0V | 00:00:00 | 00:00:00 | 00:00:00 | |
| ARGUS2 | 2026-08-30 13:36:34 | 27.75288 | -83.13827 | 323° | 27km/h | 11716m | -3.9m/s | -46.2°C | 0% | 0hPa | 0V | 00:00:00 | 00:00:00 | 00:00:00 | |
| ARGUS2 | 2026-08-30 13:36:14 | 27.75177 | -83.13728 | 327° | 27km/h | 11798m | -4.0m/s | -47.0°C | 0% | 0hPa | 0V | 00:00:00 | 00:00:00 | 00:00:00 | |
| ARGUS2 | 2026-08-30 13:35:54 | 27.75060 | -83.13630 | 326° | 29km/h | 11884m | -4.2m/s | -47.7°C | 0% | 0hPa | 0V | 00:00:00 | 00:00:00 | 00:00:00 | |
| ARGUS2 | 2026-08-30 13:35:33 | 27.74941 | -83.13533 | 322° | 31km/h | 11968m | -4.3m/s | -48.4°C | 0% | 0hPa | 0V | 00:00:00 | 00:00:00 | 00:00:00 | |
| ARGUS2 | 2026-08-30 13:35:13 | 27.74816 | -83.13415 | 322° | 31km/h | 12056m | -4.1m/s | -49.1°C | 0% | 0hPa | 0V | 00:00:00 | 00:00:00 | 00:00:00 | |
| ARGUS2 | 2026-08-30 13:34:52 | 27.74701 | -83.13297 | 314° | 31km/h | 12139m | -4.1m/s | -49.8°C | 0% | 0hPa | 0V | 00:00:00 | 00:00:00 | 00:00:00 | |
| ARGUS2 | 2026-08-30 13:34:32 | 27.74582 | -83.13170 | 319° | 31km/h | 12228m | -4.3m/s | -50.5°C | 0% | 0hPa | 0V | 00:00:00 | 00:00:00 | 00:00:00 | |
| ARGUS2 | 2026-08-30 13:34:11 | 27.74464 | -83.13055 | 325° | 31km/h | 12312m | -4.0m/s | -51.3°C | 0% | 0hPa | 0V | 00:00:00 | 00:00:00 | 00:00:00 | |
| ARGUS2 | 2026-08-30 13:33:51 | 27.74331 | -83.12962 | 331° | 29km/h | 12396m | -4.0m/s | -51.9°C | 0% | 0hPa | 0V | 00:00:00 | 00:00:00 | 00:00:00 | |
| ARGUS2 | 2026-08-30 13:33:29 | 27.74207 | -83.12880 | 330° | 26km/h | 12481m | -4.2m/s | -52.5°C | 0% | 0hPa | 0V | 00:00:00 | 00:00:00 | 00:00:00 | |
| ARGUS2 | 2026-08-30 13:33:09 | 27.74090 | -83.12803 | 332° | 27km/h | 12562m | -4.1m/s | -53.2°C | 0% | 0hPa | 0V | 00:00:00 | 00:00:00 | 00:00:00 | |
| ARGUS2 | 2026-08-30 13:32:49 | 27.73959 | -83.12734 | 335° | 26km/h | 12647m | -4.1m/s | -53.9°C | 0% | 0hPa | 0V | 00:00:00 | 00:00:00 | 00:00:00 | |
| ARGUS2 | 2026-08-30 13:32:28 | 27.73836 | -83.12671 | 338° | 26km/h | 12728m | -4.5m/s | -54.6°C | 0% | 0hPa | 0V | 00:00:00 | 00:00:00 | 00:00:00 | |
| ARGUS2 | 2026-08-30 13:32:08 | 27.73715 | -83.12614 | 339° | 24km/h | 12812m | -4.2m/s | -55.4°C | 0% | 0hPa | 0V | 00:00:00 | 00:00:00 | 00:00:00 | |
| ARGUS2 | 2026-08-30 13:31:47 | 27.73609 | -83.12562 | 338° | 22km/h | 12892m | -4.0m/s | -56.0°C | 0% | 0hPa | 0V | 00:00:00 | 00:00:00 | 00:00:00 | |
| ARGUS2 | 2026-08-30 13:31:26 | 27.73510 | -83.12507 | 335° | 20km/h | 12977m | -4.2m/s | -56.7°C | 0% | 0hPa | 0V | 00:00:00 | 00:00:00 | 00:00:00 | |
| ARGUS2 | 2026-08-30 13:31:06 | 27.73425 | -83.12447 | 325° | 20km/h | 13059m | -3.9m/s | -57.3°C | 0% | 0hPa | 0V | 00:00:00 | 00:00:00 | 00:00:00 | |
| ARGUS2 | 2026-08-30 13:30:45 | 27.73341 | -83.12375 | 324° | 20km/h | 13141m | -4.1m/s | -57.9°C | 0% | 0hPa | 0V | 00:00:00 | 00:00:00 | 00:00:00 | |
| ARGUS2 | 2026-08-30 13:30:25 | 27.73272 | -83.12290 | 309° | 20km/h | 13221m | -4.2m/s | -58.4°C | 0% | 0hPa | 0V | 00:00:00 | 00:00:00 | 00:00:00 | |
| ARGUS2 | 2026-08-30 13:30:05 | 27.73208 | -83.12202 | 312° | 18km/h | 13306m | -4.3m/s | -59.0°C | 0% | 0hPa | 0V | 00:00:00 | 00:00:00 | 00:00:00 | |
| ARGUS2 | 2026-08-30 13:29:44 | 27.73143 | -83.12121 | 316° | 16km/h | 13387m | -4.3m/s | -59.6°C | 0% | 0hPa | 0V | 00:00:00 | 00:00:00 | 00:00:00 | |
| ARGUS2 | 2026-08-30 13:29:23 | 27.73085 | -83.12056 | 314° | 11km/h | 13473m | -4.3m/s | -60.2°C | 0% | 0hPa | 0V | 00:00:00 | 00:00:00 | 00:00:00 | |
| ARGUS2 | 2026-08-30 13:29:03 | 27.73043 | -83.12014 | 318° | 11km/h | 13556m | -4.1m/s | -60.8°C | 0% | 0hPa | 0V | 00:00:00 | 00:00:00 | 00:00:00 | |
| ARGUS2 | 2026-08-30 13:28:43 | 27.72996 | -83.11974 | 318° | 9km/h | 13645m | -4.2m/s | -61.5°C | 0% | 0hPa | 0V | 00:00:00 | 00:00:00 | 00:00:00 | |
| ARGUS2 | 2026-08-30 13:28:21 | 27.72971 | -83.11947 | 311° | 4km/h | 13737m | -4.3m/s | -62.1°C | 0% | 0hPa | 0V | 00:00:00 | 00:00:00 | 00:00:00 | |
| ARGUS2 | 2026-08-30 13:28:01 | 27.72967 | -83.11929 | 274° | 4km/h | 13824m | -4.4m/s | -62.7°C | 0% | 0hPa | 0V | 00:00:00 | 00:00:00 | 00:00:00 | |
| ARGUS2 | 2026-08-30 13:27:40 | 27.72973 | -83.11904 | 284° | 4km/h | 13916m | -4.7m/s | -63.4°C | 0% | 0hPa | 0V | 00:00:00 | 00:00:00 | 00:00:00 | |
| ARGUS2 | 2026-08-30 13:27:20 | 27.72966 | -83.11885 | 316° | 5km/h | 14008m | -4.6m/s | -63.3°C | 0% | 0hPa | 0V | 00:00:00 | 00:00:00 | 00:00:00 | |
| ARGUS2 | 2026-08-30 13:26:59 | 27.72949 | -83.11879 | 25° | 2km/h | 14106m | -4.7m/s | -63.8°C | 0% | 0hPa | 0V | 00:00:00 | 00:00:00 | 00:00:00 | |
| ARGUS2 | 2026-08-30 13:26:19 | 27.72915 | -83.11923 | 59° | 11km/h | 14304m | -5.0m/s | -64.9°C | 0% | 0hPa | 0V | 00:00:00 | 00:00:00 | 00:00:00 | |
| ARGUS2 | 2026-08-30 13:25:58 | 27.72893 | -83.11980 | 80° | 11km/h | 14403m | -5.0m/s | -65.4°C | 0% | 0hPa | 0V | 00:00:00 | 00:00:00 | 00:00:00 | |
| ARGUS2 | 2026-08-30 13:25:38 | 27.72905 | -83.12031 | 134° | 9km/h | 14509m | -4.9m/s | -66.1°C | 0% | 0hPa | 0V | 00:00:00 | 00:00:00 | 00:00:00 | |
| ARGUS2 | 2026-08-30 13:25:17 | 27.72941 | -83.12064 | 140° | 9km/h | 14608m | -5.0m/s | -66.9°C | 0% | 0hPa | 0V | 00:00:00 | 00:00:00 | 00:00:00 | |
| ARGUS2 | 2026-08-30 13:24:57 | 27.72984 | -83.12106 | 133° | 13km/h | 14711m | -4.9m/s | -67.4°C | 0% | 0hPa | 0V | 00:00:00 | 00:00:00 | 00:00:00 | |
| ARGUS2 | 2026-08-30 13:24:36 | 27.73060 | -83.12173 | 146° | 20km/h | 14814m | -5.1m/s | -67.5°C | 0% | 0hPa | 0V | 00:00:00 | 00:00:00 | 00:00:00 | |
| ARGUS2 | 2026-08-30 13:24:16 | 27.73149 | -83.12246 | 143° | 20km/h | 14921m | -4.8m/s | -68.4°C | 0% | 0hPa | 0V | 00:00:00 | 00:00:00 | 00:00:00 | |
| ARGUS2 | 2026-08-30 13:23:55 | 27.73230 | -83.12324 | 150° | 18km/h | 15020m | -5.0m/s | -69.2°C | 0% | 0hPa | 0V | 00:00:00 | 00:00:00 | 00:00:00 | |
| ARGUS2 | 2026-08-30 13:23:35 | 27.73321 | -83.12371 | 157° | 22km/h | 15125m | -4.9m/s | -69.0°C | 0% | 0hPa | 0V | 00:00:00 | 00:00:00 | 00:00:00 | |
| ARGUS2 | 2026-08-30 13:23:14 | 27.73398 | -83.12398 | 170° | 11km/h | 15225m | -4.4m/s | -69.4°C | 0% | 0hPa | 0V | 00:00:00 | 00:00:00 | 00:00:00 | |
| ARGUS2 | 2026-08-30 13:22:52 | 27.73444 | -83.12384 | 182° | 13km/h | 15323m | -4.7m/s | -68.5°C | 0% | 0hPa | 0V | 00:00:00 | 00:00:00 | 00:00:00 | |
| ARGUS2 | 2026-08-30 13:22:31 | 27.73487 | -83.12373 | 194° | 7km/h | 15426m | -4.8m/s | -67.3°C | 0% | 0hPa | 0V | 00:00:00 | 00:00:00 | 00:00:00 | |
| ARGUS2 | 2026-08-30 13:22:07 | 27.73568 | -83.12333 | 209° | 26km/h | 15541m | -5.2m/s | -66.5°C | 0% | 0hPa | 0V | 00:00:00 | 00:00:00 | 00:00:00 | |
| ARGUS2 | 2026-08-30 13:21:46 | 27.73665 | -83.12214 | 241° | 31km/h | 15647m | -5.3m/s | -66.2°C | 0% | 0hPa | 0V | 00:00:00 | 00:00:00 | 00:00:00 | |
| ARGUS2 | 2026-08-30 13:21:25 | 27.73738 | -83.12028 | 250° | 37km/h | 15760m | -5.5m/s | -65.9°C | 0% | 0hPa | 0V | 00:00:00 | 00:00:00 | 00:00:00 | |
| ARGUS2 | 2026-08-30 13:21:05 | 27.73789 | -83.11844 | 258° | 29km/h | 15872m | -5.7m/s | -66.3°C | 0% | 0hPa | 0V | 00:00:00 | 00:00:00 | 00:00:00 | |
| ARGUS2 | 2026-08-30 13:20:45 | 27.73798 | -83.11692 | 284° | 22km/h | 15993m | -6.0m/s | -66.3°C | 0% | 0hPa | 0V | 00:00:00 | 00:00:00 | 00:00:00 | |
| ARGUS2 | 2026-08-30 13:20:24 | 27.73762 | -83.11588 | 300° | 20km/h | 16110m | -5.9m/s | -66.6°C | 0% | 0hPa | 0V | 00:00:00 | 00:00:00 | 00:00:00 | |
| ARGUS2 | 2026-08-30 13:20:04 | 27.73700 | -83.11474 | 315° | 22km/h | 16232m | -5.7m/s | -66.3°C | 0% | 0hPa | 0V | 00:00:00 | 00:00:00 | 00:00:00 | |
| ARGUS2 | 2026-08-30 13:19:43 | 27.73612 | -83.11420 | 330° | 22km/h | 16344m | -5.5m/s | -65.2°C | 0% | 0hPa | 0V | 00:00:00 | 00:00:00 | 00:00:00 | |
| ARGUS2 | 2026-08-30 13:19:23 | 27.73510 | -83.11323 | 321° | 33km/h | 16461m | -5.7m/s | -64.4°C | 0% | 0hPa | 0V | 00:00:00 | 00:00:00 | 00:00:00 | |
| ARGUS2 | 2026-08-30 13:19:01 | 27.73378 | -83.11196 | 321° | 31km/h | 16580m | -5.8m/s | -64.7°C | 0% | 0hPa | 0V | 00:00:00 | 00:00:00 | 00:00:00 | |
| ARGUS2 | 2026-08-30 13:18:41 | 27.73251 | -83.11094 | 328° | 33km/h | 16692m | -5.6m/s | -65.3°C | 0% | 0hPa | 0V | 00:00:00 | 00:00:00 | 00:00:00 | |
| ARGUS2 | 2026-08-30 13:18:20 | 27.73108 | -83.10977 | 325° | 35km/h | 16805m | -5.3m/s | -66.2°C | 0% | 0hPa | 0V | 00:00:00 | 00:00:00 | 00:00:00 | |
| ARGUS2 | 2026-08-30 13:18:00 | 27.72987 | -83.10866 | 317° | 27km/h | 16910m | -5.1m/s | -66.4°C | 0% | 0hPa | 0V | 00:00:00 | 00:00:00 | 00:00:00 | |
| ARGUS2 | 2026-08-30 13:17:39 | 27.72863 | -83.10785 | 340° | 27km/h | 17026m | -5.8m/s | -65.9°C | 0% | 0hPa | 0V | 00:00:00 | 00:00:00 | 00:00:00 | |
| ARGUS2 | 2026-08-30 13:17:19 | 27.72763 | -83.10740 | 338° | 15km/h | 17142m | -6.0m/s | -65.9°C | 0% | 0hPa | 0V | 00:00:00 | 00:00:00 | 00:00:00 | |
| ARGUS2 | 2026-08-30 13:16:58 | 27.72724 | -83.10700 | 276° | 13km/h | 17272m | -6.2m/s | -65.5°C | 0% | 0hPa | 0V | 00:00:00 | 00:00:00 | 00:00:00 | |
| ARGUS2 | 2026-08-30 13:16:38 | 27.72738 | -83.10622 | 246° | 16km/h | 17400m | -6.6m/s | -65.3°C | 0% | 0hPa | 0V | 00:00:00 | 00:00:00 | 00:00:00 | |
| ARGUS2 | 2026-08-30 13:16:18 | 27.72754 | -83.10514 | 277° | 16km/h | 17538m | -6.5m/s | -64.9°C | 0% | 0hPa | 0V | 00:00:00 | 00:00:00 | 00:00:00 | |
| ARGUS2 | 2026-08-30 13:15:57 | 27.72749 | -83.10430 | 284° | 13km/h | 17670m | -6.6m/s | -65.7°C | 0% | 0hPa | 0V | 00:00:00 | 00:00:00 | 00:00:00 | |
| ARGUS2 | 2026-08-30 13:15:37 | 27.72736 | -83.10376 | 254° | 7km/h | 17807m | -6.4m/s | -66.3°C | 0% | 0hPa | 0V | 00:00:00 | 00:00:00 | 00:00:00 | |
| ARGUS2 | 2026-08-30 13:15:16 | 27.72794 | -83.10332 | 205° | 24km/h | 17938m | -6.2m/s | -66.1°C | 0% | 0hPa | 0V | 00:00:00 | 00:00:00 | 00:00:00 | |
| ARGUS2 | 2026-08-30 13:14:56 | 27.72915 | -83.10267 | 221° | 22km/h | 18073m | -6.2m/s | -66.4°C | 0% | 0hPa | 0V | 00:00:00 | 00:00:00 | 00:00:00 | |
| ARGUS2 | 2026-08-30 13:14:34 | 27.72969 | -83.10174 | 265° | 15km/h | 18201m | -5.9m/s | -66.6°C | 0% | 0hPa | 0V | 00:00:00 | 00:00:00 | 00:00:00 | |
| ARGUS2 | 2026-08-30 13:14:14 | 27.72942 | -83.10034 | 300° | 24km/h | 18329m | -6.2m/s | -66.2°C | 0% | 0hPa | 0V | 00:00:00 | 00:00:00 | 00:00:00 | |
| ARGUS2 | 2026-08-30 13:13:52 | 27.72878 | -83.09908 | 292° | 20km/h | 18459m | -6.2m/s | -66.3°C | 0% | 0hPa | 0V | 00:00:00 | 00:00:00 | 00:00:00 | |
| ARGUS2 | 2026-08-30 13:13:32 | 27.72861 | -83.09840 | 257° | 9km/h | 18589m | -6.3m/s | -65.1°C | 0% | 0hPa | 0V | 00:00:00 | 00:00:00 | 00:00:00 | |
| ARGUS2 | 2026-08-30 13:13:11 | 27.72912 | -83.09766 | 224° | 26km/h | 18715m | -6.2m/s | -64.0°C | 0% | 0hPa | 0V | 00:00:00 | 00:00:00 | 00:00:00 | |
| ARGUS2 | 2026-08-30 13:12:50 | 27.73016 | -83.09644 | 226° | 31km/h | 18855m | -6.7m/s | -64.9°C | 0% | 0hPa | 0V | 00:00:00 | 00:00:00 | 00:00:00 | |
| ARGUS2 | 2026-08-30 13:12:29 | 27.73133 | -83.09470 | 241° | 42km/h | 19002m | -7.2m/s | -64.0°C | 0% | 0hPa | 0V | 00:00:00 | 00:00:00 | 00:00:00 | |
| ARGUS2 | 2026-08-30 13:12:09 | 27.73206 | -83.09236 | 269° | 40km/h | 19153m | -7.5m/s | -63.5°C | 0% | 0hPa | 0V | 00:00:00 | 00:00:00 | 00:00:00 | |
| ARGUS2 | 2026-08-30 13:11:48 | 27.73170 | -83.08995 | 290° | 38km/h | 19319m | -8.4m/s | -63.6°C | 0% | 0hPa | 0V | 00:00:00 | 00:00:00 | 00:00:00 | |
| ARGUS2 | 2026-08-30 13:11:28 | 27.73110 | -83.08840 | 286° | 20km/h | 19488m | -8.6m/s | -63.9°C | 0% | 0hPa | 0V | 00:00:00 | 00:00:00 | 00:00:00 | |
| ARGUS2 | 2026-08-30 13:11:08 | 27.73130 | -83.08739 | 229° | 22km/h | 19668m | -8.7m/s | -61.8°C | 0% | 0hPa | 0V | 00:00:00 | 00:00:00 | 00:00:00 | |
| ARGUS2 | 2026-08-30 13:10:47 | 27.73228 | -83.08581 | 243° | 46km/h | 19843m | -8.6m/s | -61.0°C | 0% | 0hPa | 0V | 00:00:00 | 00:00:00 | 00:00:00 | |
| ARGUS2 | 2026-08-30 13:10:27 | 27.73304 | -83.08263 | 261° | 66km/h | 20025m | -8.4m/s | -59.7°C | 0% | 0hPa | 0V | 00:00:00 | 00:00:00 | 00:00:00 | |
| ARGUS2 | 2026-08-30 13:10:05 | 27.73385 | -83.07882 | 254° | 62km/h | 20207m | -8.5m/s | -59.9°C | 0% | 0hPa | 0V | 00:00:00 | 00:00:00 | 00:00:00 | |
| ARGUS2 | 2026-08-30 13:09:44 | 27.73458 | -83.07517 | 264° | 69km/h | 20383m | -8.3m/s | -60.2°C | 0% | 0hPa | 0V | 00:00:00 | 00:00:00 | 00:00:00 | |
| ARGUS2 | 2026-08-30 13:09:20 | 27.73485 | -83.07011 | 265° | 69km/h | 20581m | -7.8m/s | -60.2°C | 0% | 0hPa | 0V | 00:00:00 | 00:00:00 | 00:00:00 | |
| ARGUS2 | 2026-08-30 13:08:59 | 27.73512 | -83.06623 | 271° | 66km/h | 20736m | -7.9m/s | -59.4°C | 0% | 0hPa | 0V | 00:00:00 | 00:00:00 | 00:00:00 | |
| ARGUS2 | 2026-08-30 13:08:39 | 27.73456 | -83.06250 | 288° | 57km/h | 20907m | -8.0m/s | -59.0°C | 0% | 0hPa | 0V | 00:00:00 | 00:00:00 | 00:00:00 | |
| ARGUS2 | 2026-08-30 13:08:19 | 27.73429 | -83.05969 | 265° | 44km/h | 21075m | -8.6m/s | -57.6°C | 0% | 0hPa | 0V | 00:00:00 | 00:00:00 | 00:00:00 | |
| ARGUS2 | 2026-08-30 13:07:58 | 27.73437 | -83.05728 | 271° | 33km/h | 21262m | -9.0m/s | -57.6°C | 0% | 0hPa | 0V | 00:00:00 | 00:00:00 | 00:00:00 | |
| ARGUS2 | 2026-08-30 13:07:37 | 27.73447 | -83.05543 | 254° | 37km/h | 21457m | -9.4m/s | -57.0°C | 0% | 0hPa | 0V | 00:00:00 | 00:00:00 | 00:00:00 | |
| ARGUS2 | 2026-08-30 13:07:16 | 27.73532 | -83.05303 | 250° | 57km/h | 21651m | -9.7m/s | -57.0°C | 0% | 0hPa | 0V | 00:00:00 | 00:00:00 | 00:00:00 | |
| ARGUS2 | 2026-08-30 13:06:56 | 27.73580 | -83.05008 | 267° | 47km/h | 21861m | -10.4m/s | -56.6°C | 0% | 0hPa | 0V | 00:00:00 | 00:00:00 | 00:00:00 | |
| ARGUS2 | 2026-08-30 13:06:35 | 27.73621 | -83.04710 | 266° | 58km/h | 22067m | -10.5m/s | -56.9°C | 0% | 0hPa | 0V | 00:00:00 | 00:00:00 | 00:00:00 | |
| ARGUS2 | 2026-08-30 13:06:14 | 27.73632 | -83.04342 | 267° | 55km/h | 22286m | -10.4m/s | -57.2°C | 0% | 0hPa | 0V | 00:00:00 | 00:00:00 | 00:00:00 | |
| ARGUS2 | 2026-08-30 13:05:45 | 27.73678 | -83.03918 | 258° | 51km/h | 22597m | -10.5m/s | -57.4°C | 0% | 0hPa | 0V | 00:00:00 | 00:00:00 | 00:00:00 | |
| ARGUS2 | 2026-08-30 13:05:24 | 27.73703 | -83.03591 | 266° | 57km/h | 22806m | -10.2m/s | -56.3°C | 0% | 0hPa | 0V | 00:00:00 | 00:00:00 | 00:00:00 | |
| ARGUS2 | 2026-08-30 13:05:03 | 27.73724 | -83.03219 | 277° | 71km/h | 23025m | -10.5m/s | -56.1°C | 0% | 0hPa | 0V | 00:00:00 | 00:00:00 | 00:00:00 | |
| ARGUS2 | 2026-08-30 13:04:22 | 27.73607 | -83.02483 | 272° | 66km/h | 23464m | -11.1m/s | -54.6°C | 0% | 0hPa | 0V | 00:00:00 | 00:00:00 | 00:00:00 | |
| ARGUS2 | 2026-08-30 13:04:01 | 27.73550 | -83.02093 | 289° | 60km/h | 23696m | -12.3m/s | -54.1°C | 0% | 0hPa | 0V | 00:00:00 | 00:00:00 | 00:00:00 | |
| ARGUS2 | 2026-08-30 13:03:40 | 27.73428 | -83.01823 | 290° | 44km/h | 24184m | -21.8m/s | -53.1°C | 0% | 0hPa | 0V | 00:00:00 | 00:00:00 | 00:00:00 | |
| ARGUS2 | 2026-08-30 13:03:20 | 27.73397 | -83.01529 | 277° | 57km/h | 24634m | -17.5m/s | -53.1°C | 0% | 0hPa | 0V | 00:00:00 | 00:00:00 | 00:00:00 | |
| ARGUS2 | 2026-08-30 13:02:46 | 27.73287 | -83.00925 | 314° | 66km/h | 25126m | -10.8m/s | -50.6°C | 0% | 0hPa | 0V | 00:00:00 | 00:00:00 | 00:00:00 | |
| ARGUS2 | 2026-08-30 13:02:13 | 27.73063 | -83.00498 | 337° | 20km/h | 25470m | -9.8m/s | -52.3°C | 0% | 0hPa | 0V | 00:00:00 | 00:00:00 | 00:00:00 | |
| ARGUS2 | 2026-08-30 13:01:52 | 27.73010 | -83.00340 | 269° | 4km/h | 25702m | -11.6m/s | 0°C | 0% | 0hPa | 0V | 00:00:00 | 00:00:00 | 00:00:00 | |
| ARGUS2 | 2026-08-30 13:01:05 | 27.73166 | -82.99783 | 258° | 60km/h | 26245m | -11.9m/s | -50.3°C | 0% | 0hPa | 0V | 00:00:00 | 00:00:00 | 00:00:00 | |
| ARGUS2 | 2026-08-30 13:00:09 | 27.73315 | -82.99185 | 229° | 73km/h | 26902m | -11.4m/s | -48.7°C | 0% | 0hPa | 0V | 00:00:00 | 00:00:00 | 00:00:00 | |
| ARGUS2 | 2026-08-30 12:59:36 | 27.73582 | -82.98726 | 235° | 78km/h | 27313m | -12.7m/s | -48.5°C | 0% | 0hPa | 0V | 00:00:00 | 00:00:00 | 00:00:00 | |
| ARGUS2 | 2026-08-30 12:59:15 | 27.73670 | -82.98326 | 243° | 66km/h | 27592m | -13.5m/s | -47.2°C | 0% | 0hPa | 0V | 00:00:00 | 00:00:00 | 00:00:00 | |
| ARGUS2 | 2026-08-30 12:56:27 | 27.74242 | -82.95017 | 288° | 40km/h | 29873m | -14.8m/s | -41.1°C | 0% | 0hPa | 0V | 00:00:00 | 00:00:00 | 00:00:00 | |
| ARGUS2 | 2026-08-30 12:56:05 | 27.74130 | -82.94649 | 295° | 62km/h | 30203m | -15.6m/s | -40.5°C | 0% | 0hPa | 0V | 00:00:00 | 00:00:00 | 00:00:00 | |
| ARGUS2 | 2026-08-30 12:54:14 | 27.74058 | -82.92837 | 294° | 78km/h | 32632m | -42.2m/s | -42.5°C | 0% | 0hPa | 0V | 00:00:00 | 00:00:00 | 00:00:00 | |
| ARGUS2 | 2026-08-30 12:53:49 | 27.73953 | -82.92499 | 270° | 35km/h | 33374m | -23.0m/s | -35.5°C | 0% | 0hPa | 0V | 00:00:00 | 00:00:00 | 00:00:00 | |
| ARGUS2 | 2026-08-30 12:53:29 | 27.73990 | -82.92336 | 252° | 38km/h | 33877m | -40.4m/s | -35.3°C | 0% | 0hPa | 0V | 00:00:00 | 00:00:00 | 00:00:00 | |
| ARGUS2 | 2026-08-30 12:53:09 | 27.73993 | -82.92128 | 1° | 26km/h | 34220m | 5.9m/s | -35.2°C | 0% | 0hPa | 0V | 00:00:00 | 00:00:00 | 00:00:00 | |
| ARGUS2 | 2026-08-30 12:52:47 | 27.73998 | -82.91956 | 258° | 73km/h | 34063m | 12.1m/s | -34.9°C | 0% | 0hPa | 0V | 00:00:00 | 00:00:00 | 00:00:00 | |
| ARGUS2 | 2026-08-30 12:52:28 | 27.74071 | -82.91762 | 331° | 64km/h | 33884m | 7.8m/s | -34.9°C | 0% | 0hPa | 0V | 00:00:00 | 00:00:00 | 00:00:00 | |
| ARGUS2 | 2026-08-30 12:52:05 | 27.74090 | -82.91588 | 300° | 62km/h | 33758m | 4.2m/s | -34.5°C | 0% | 0hPa | 0V | 00:00:00 | 00:00:00 | 00:00:00 | |
| ARGUS2 | 2026-08-30 12:51:45 | 27.74125 | -82.91398 | 212° | 57km/h | 33619m | 12.6m/s | -33.8°C | 0% | 0hPa | 0V | 00:00:00 | 00:00:00 | 00:00:00 | |
| ARGUS2 | 2026-08-30 12:51:24 | 27.74138 | -82.91291 | 51° | 31km/h | 33503m | 2.6m/s | -33.6°C | 0% | 0hPa | 0V | 00:00:00 | 00:00:00 | 00:00:00 | |
| ARGUS2 | 2026-08-30 12:51:03 | 27.74085 | -82.91133 | 274° | 69km/h | 33386m | 1.2m/s | -34.3°C | 0% | 0hPa | 0V | 00:00:00 | 00:00:00 | 00:00:00 | |
| ARGUS2 | 2026-08-30 12:50:43 | 27.74099 | -82.90956 | 232° | 42km/h | 33283m | 8.6m/s | -35.1°C | 0% | 0hPa | 0V | 00:00:00 | 00:00:00 | 00:00:00 | |
| ARGUS2 | 2026-08-30 12:50:23 | 27.74069 | -82.90791 | 339° | 51km/h | 33171m | 1.8m/s | -38.0°C | 0% | 0hPa | 0V | 00:00:00 | 00:00:00 | 00:00:00 | |
| ARGUS2 | 2026-08-30 12:50:01 | 27.73944 | -82.90510 | 279° | 99km/h | 33048m | 7.4m/s | -39.7°C | 0% | 0hPa | 0V | 00:00:00 | 00:00:00 | 00:00:00 | |
| ARGUS2 | 2026-08-30 12:49:40 | 27.73812 | -82.90148 | 335° | 57km/h | 32917m | 5.9m/s | -39.7°C | 0% | 0hPa | 0V | 00:00:00 | 00:00:00 | 00:00:00 | |
| ARGUS2 | 2026-08-30 12:49:19 | 27.73684 | -82.89817 | 339° | 77km/h | 32807m | 3.8m/s | -40.7°C | 0% | 0hPa | 0V | 00:00:00 | 00:00:00 | 00:00:00 | |
| ARGUS2 | 2026-08-30 12:48:59 | 27.73487 | -82.89397 | 294° | 73km/h | 32677m | 7.8m/s | -42.3°C | 0% | 0hPa | 0V | 00:00:00 | 00:00:00 | 00:00:00 | |
| ARGUS2 | 2026-08-30 12:48:37 | 27.73328 | -82.88910 | 284° | 120km/h | 32532m | 1.6m/s | -43.7°C | 0% | 0hPa | 0V | 00:00:00 | 00:00:00 | 00:00:00 | |
| ARGUS2 | 2026-08-30 12:48:14 | 27.73134 | -82.88327 | 283° | 78km/h | 32362m | 6.8m/s | -45.0°C | 0% | 0hPa | 0V | 00:00:00 | 00:00:00 | 00:00:00 | |
| ARGUS2 | 2026-08-30 12:47:53 | 27.73087 | -82.87814 | 269° | 111km/h | 32202m | 9.4m/s | -44.7°C | 0% | 0hPa | 0V | 00:00:00 | 00:00:00 | 00:00:00 | |
| ARGUS2 | 2026-08-30 12:47:32 | 27.73082 | -82.87314 | 274° | 77km/h | 32050m | 10.4m/s | -44.0°C | 0% | 0hPa | 0V | 00:00:00 | 00:00:00 | 00:00:00 | |
| ARGUS2 | 2026-08-30 12:47:12 | 27.73107 | -82.86890 | 257° | 46km/h | 31902m | 4.9m/s | -43.6°C | 0% | 0hPa | 0V | 00:00:00 | 00:00:00 | 00:00:00 | |
| ARGUS2 | 2026-08-30 12:46:52 | 27.73153 | -82.86442 | 267° | 110km/h | 31760m | 8.1m/s | -43.7°C | 0% | 0hPa | 0V | 00:00:00 | 00:00:00 | 00:00:00 | |
| ARGUS2 | 2026-08-30 12:46:30 | 27.73273 | -82.85947 | 241° | 49km/h | 31621m | 4.7m/s | -43.8°C | 0% | 0hPa | 0V | 00:00:00 | 00:00:00 | 00:00:00 | |
| ARGUS2 | 2026-08-30 12:46:08 | 27.73413 | -82.85508 | 262° | 106km/h | 31497m | 6.5m/s | -43.4°C | 0% | 0hPa | 0V | 00:00:00 | 00:00:00 | 00:00:00 | |
| ARGUS2 | 2026-08-30 12:45:48 | 27.73523 | -82.85116 | 248° | 78km/h | 31385m | 5.1m/s | -42.5°C | 0% | 0hPa | 0V | 00:00:00 | 00:00:00 | 00:00:00 | |
| ARGUS2 | 2026-08-30 12:45:28 | 27.73632 | -82.84781 | 270° | 35km/h | 31262m | 1.2m/s | -41.8°C | 0% | 0hPa | 0V | 00:00:00 | 00:00:00 | 00:00:00 | |
| ARGUS2 | 2026-08-30 12:45:07 | 27.73706 | -82.84431 | 254° | 95km/h | 31136m | 3.3m/s | -41.4°C | 0% | 0hPa | 0V | 00:00:00 | 00:00:00 | 00:00:00 | |
| ARGUS2 | 2026-08-30 12:44:46 | 27.73731 | -82.84111 | 279° | 49km/h | 30992m | 4.4m/s | -41.1°C | 0% | 0hPa | 0V | 00:00:00 | 00:00:00 | 00:00:00 | |
| ARGUS2 | 2026-08-30 12:44:24 | 27.73699 | -82.83791 | 271° | 60km/h | 30865m | 9.7m/s | -41.1°C | 0% | 0hPa | 0V | 00:00:00 | 00:00:00 | 00:00:00 | |
| ARGUS2 | 2026-08-30 12:44:03 | 27.73731 | -82.83453 | 238° | 62km/h | 30728m | 8.6m/s | -41.6°C | 0% | 0hPa | 0V | 00:00:00 | 00:00:00 | 00:00:00 | |
| ARGUS2 | 2026-08-30 12:43:43 | 27.73751 | -82.83179 | 270° | 35km/h | 30592m | 2.3m/s | -41.5°C | 0% | 0hPa | 0V | 00:00:00 | 00:00:00 | 00:00:00 | |
| ARGUS2 | 2026-08-30 12:43:22 | 27.73678 | -82.82842 | 299° | 89km/h | 30444m | 4.6m/s | -40.8°C | 0% | 0hPa | 0V | 00:00:00 | 00:00:00 | 00:00:00 | |
| ARGUS2 | 2026-08-30 12:43:04 | 27.73553 | -82.82485 | 280° | 47km/h | 30309m | 9.4m/s | -40.5°C | 0% | 0hPa | 0V | 00:00:00 | 00:00:00 | 00:00:00 | |
| ARGUS2 | 2026-08-30 12:42:42 | 27.73371 | -82.82094 | 291° | 88km/h | 30176m | 2.7m/s | -40.7°C | 0% | 0hPa | 0V | 00:00:00 | 00:00:00 | 00:00:00 | |
| ARGUS2 | 2026-08-30 12:42:21 | 27.73275 | -82.81721 | 253° | 44km/h | 30051m | 4.1m/s | -41.2°C | 0% | 0hPa | 0V | 00:00:00 | 00:00:00 | 00:00:00 | |
| ARGUS2 | 2026-08-30 12:42:01 | 27.73233 | -82.81373 | 294° | 88km/h | 29928m | 5.1m/s | -41.9°C | 0% | 0hPa | 0V | 00:00:00 | 00:00:00 | 00:00:00 | |
| ARGUS2 | 2026-08-30 12:41:40 | 27.73150 | -82.81005 | 276° | 47km/h | 29815m | 4.9m/s | -43.3°C | 0% | 0hPa | 0V | 00:00:00 | 00:00:00 | 00:00:00 | |
| ARGUS2 | 2026-08-30 12:41:20 | 27.73067 | -82.80573 | 279° | 110km/h | 29701m | 3.8m/s | -43.0°C | 0% | 0hPa | 0V | 00:00:00 | 00:00:00 | 00:00:00 | |
| ARGUS2 | 2026-08-30 12:40:59 | 27.73000 | -82.80133 | 278° | 58km/h | 29594m | 7.2m/s | -43.5°C | 0% | 0hPa | 0V | 00:00:00 | 00:00:00 | 00:00:00 | |
| ARGUS2 | 2026-08-30 12:40:39 | 27.72947 | -82.79651 | 279° | 113km/h | 29494m | 10.0m/s | -45.5°C | 0% | 0hPa | 0V | 00:00:00 | 00:00:00 | 00:00:00 | |
| ARGUS2 | 2026-08-30 12:39:57 | 27.72933 | -82.78626 | 253° | 99km/h | 29287m | 4.8m/s | -46.3°C | 0% | 0hPa | 0V | 00:00:00 | 00:00:00 | 00:00:00 | |
| ARGUS2 | 2026-08-30 12:39:37 | 27.73009 | -82.78040 | 280° | 88km/h | 29179m | 5.6m/s | -46.7°C | 0% | 0hPa | 0V | 00:00:00 | 00:00:00 | 00:00:00 | |
| ARGUS2 | 2026-08-30 12:39:16 | 27.73115 | -82.77557 | 231° | 78km/h | 29068m | 3.4m/s | -46.9°C | 0% | 0hPa | 0V | 00:00:00 | 00:00:00 | 00:00:00 | |
| ARGUS2 | 2026-08-30 12:38:56 | 27.73284 | -82.77065 | 251° | 115km/h | 28937m | 5.3m/s | -46.8°C | 0% | 0hPa | 0V | 00:00:00 | 00:00:00 | 00:00:00 | |
| ARGUS2 | 2026-08-30 12:38:35 | 27.73453 | -82.76641 | 234° | 51km/h | 28805m | 5.7m/s | -45.9°C | 0% | 0hPa | 0V | 00:00:00 | 00:00:00 | 00:00:00 | |
| ARGUS2 | 2026-08-30 12:38:14 | 27.73628 | -82.76253 | 247° | 97km/h | 28667m | 6.8m/s | -45.5°C | 0% | 0hPa | 0V | 00:00:00 | 00:00:00 | 00:00:00 | |
| ARGUS2 | 2026-08-30 12:37:54 | 27.73834 | -82.75933 | 199° | 55km/h | 28524m | 5.0m/s | -45.1°C | 0% | 0hPa | 0V | 00:00:00 | 00:00:00 | 00:00:00 | |
| ARGUS2 | 2026-08-30 12:37:34 | 27.74004 | -82.75651 | 258° | 66km/h | 28382m | 5.3m/s | -45.1°C | 0% | 0hPa | 0V | 00:00:00 | 00:00:00 | 00:00:00 | |
| ARGUS2 | 2026-08-30 12:37:14 | 27.74114 | -82.75413 | 239° | 46km/h | 28246m | 6.5m/s | -45.5°C | 0% | 0hPa | 0V | 00:00:00 | 00:00:00 | 00:00:00 | |
| ARGUS2 | 2026-08-30 12:36:53 | 27.74203 | -82.75169 | 235° | 46km/h | 28117m | 9.5m/s | -46.2°C | 0% | 0hPa | 0V | 00:00:00 | 00:00:00 | 00:00:00 | |
| ARGUS2 | 2026-08-30 12:36:33 | 27.74272 | -82.74937 | 279° | 64km/h | 27995m | 4.8m/s | -47.0°C | 0% | 0hPa | 0V | 00:00:00 | 00:00:00 | 00:00:00 | |
| ARGUS2 | 2026-08-30 12:36:12 | 27.74263 | -82.74677 | 245° | 37km/h | 27878m | 5.7m/s | -48.0°C | 0% | 0hPa | 0V | 00:00:00 | 00:00:00 | 00:00:00 | |
| ARGUS2 | 2026-08-30 12:35:51 | 27.74264 | -82.74403 | 251° | 49km/h | 27769m | 5.7m/s | -48.7°C | 0% | 0hPa | 0V | 00:00:00 | 00:00:00 | 00:00:00 | |
| ARGUS2 | 2026-08-30 12:35:31 | 27.74298 | -82.74062 | 276° | 62km/h | 27658m | 2.6m/s | -48.9°C | 0% | 0hPa | 0V | 00:00:00 | 00:00:00 | 00:00:00 | |
| ARGUS2 | 2026-08-30 12:35:10 | 27.74371 | -82.73720 | 245° | 57km/h | 27543m | 4.5m/s | -49.0°C | 0% | 0hPa | 0V | 00:00:00 | 00:00:00 | 00:00:00 | |
| ARGUS2 | 2026-08-30 12:34:50 | 27.74454 | -82.73361 | 237° | 44km/h | 27424m | 8.1m/s | -49.4°C | 0% | 0hPa | 0V | 00:00:00 | 00:00:00 | 00:00:00 | |
| ARGUS2 | 2026-08-30 12:34:28 | 27.74610 | -82.73049 | 258° | 47km/h | 27297m | 7.7m/s | -48.8°C | 0% | 0hPa | 0V | 00:00:00 | 00:00:00 | 00:00:00 | |
| ARGUS2 | 2026-08-30 12:34:09 | 27.74736 | -82.72790 | 237° | 49km/h | 27176m | 7.2m/s | -48.2°C | 0% | 0hPa | 0V | 00:00:00 | 00:00:00 | 00:00:00 | |
| ARGUS2 | 2026-08-30 12:33:48 | 27.74840 | -82.72572 | 207° | 37km/h | 27039m | 3.8m/s | -48.9°C | 0% | 0hPa | 0V | 00:00:00 | 00:00:00 | 00:00:00 | |
| ARGUS2 | 2026-08-30 12:33:27 | 27.74934 | -82.72374 | 255° | 37km/h | 26914m | 7.0m/s | -49.0°C | 0% | 0hPa | 0V | 00:00:00 | 00:00:00 | 00:00:00 | |
| ARGUS2 | 2026-08-30 12:33:07 | 27.75022 | -82.72208 | 274° | 22km/h | 26780m | 8.6m/s | -49.2°C | 0% | 0hPa | 0V | 00:00:00 | 00:00:00 | 00:00:00 | |
| ARGUS2 | 2026-08-30 12:32:46 | 27.75056 | -82.72069 | 311° | 20km/h | 26655m | 8.3m/s | -49.7°C | 0% | 0hPa | 0V | 00:00:00 | 00:00:00 | 00:00:00 | |
| ARGUS2 | 2026-08-30 12:32:26 | 27.75033 | -82.71894 | 272° | 44km/h | 26525m | 4.3m/s | -49.4°C | 0% | 0hPa | 0V | 00:00:00 | 00:00:00 | 00:00:00 | |
| ARGUS2 | 2026-08-30 12:32:05 | 27.74973 | -82.71686 | 284° | 69km/h | 26402m | 7.1m/s | -49.5°C | 0% | 0hPa | 0V | 00:00:00 | 00:00:00 | 00:00:00 | |
| ARGUS2 | 2026-08-30 12:31:45 | 27.74860 | -82.71408 | 296° | 64km/h | 26283m | 8.4m/s | -49.5°C | 0% | 0hPa | 0V | 00:00:00 | 00:00:00 | 00:00:00 | |
| ARGUS2 | 2026-08-30 12:31:24 | 27.74774 | -82.71099 | 285° | 51km/h | 26168m | 6.3m/s | -49.4°C | 0% | 0hPa | 0V | 00:00:00 | 00:00:00 | 00:00:00 | |
| ARGUS2 | 2026-08-30 12:31:04 | 27.74750 | -82.70809 | 251° | 42km/h | 26048m | 6.5m/s | -50.0°C | 0% | 0hPa | 0V | 00:00:00 | 00:00:00 | 00:00:00 | |
| ARGUS2 | 2026-08-30 12:30:43 | 27.74800 | -82.70548 | 271° | 64km/h | 25934m | 3.9m/s | -50.4°C | 0% | 0hPa | 0V | 00:00:00 | 00:00:00 | 00:00:00 | |
| ARGUS2 | 2026-08-30 12:30:23 | 27.74905 | -82.70297 | 206° | 47km/h | 25818m | 6.7m/s | -50.6°C | 0% | 0hPa | 0V | 00:00:00 | 00:00:00 | 00:00:00 | |
| ARGUS2 | 2026-08-30 12:30:02 | 27.75017 | -82.70108 | 236° | 51km/h | 25699m | 7.2m/s | -50.3°C | 0% | 0hPa | 0V | 00:00:00 | 00:00:00 | 00:00:00 | |
| ARGUS2 | 2026-08-30 12:29:41 | 27.75075 | -82.69942 | 277° | 27km/h | 25588m | 4.8m/s | -50.2°C | 0% | 0hPa | 0V | 00:00:00 | 00:00:00 | 00:00:00 | |
| ARGUS2 | 2026-08-30 12:29:21 | 27.75060 | -82.69806 | 315° | 35km/h | 25471m | 3.6m/s | -50.6°C | 0% | 0hPa | 0V | 00:00:00 | 00:00:00 | 00:00:00 | |
| ARGUS2 | 2026-08-30 12:29:00 | 27.74978 | -82.69623 | 309° | 53km/h | 25357m | 4.0m/s | -50.8°C | 0% | 0hPa | 0V | 00:00:00 | 00:00:00 | 00:00:00 | |
| ARGUS2 | 2026-08-30 12:28:39 | 27.74854 | -82.69402 | 291° | 53km/h | 25238m | 7.2m/s | -50.4°C | 0% | 0hPa | 0V | 00:00:00 | 00:00:00 | 00:00:00 | |
| ARGUS2 | 2026-08-30 12:28:19 | 27.74762 | -82.69115 | 274° | 62km/h | 25124m | 7.4m/s | -50.0°C | 0% | 0hPa | 0V | 00:00:00 | 00:00:00 | 00:00:00 | |
| ARGUS2 | 2026-08-30 12:27:58 | 27.74688 | -82.68741 | 261° | 55km/h | 25006m | 2.0m/s | -51.5°C | 0% | 0hPa | 0V | 00:00:00 | 00:00:00 | 00:00:00 | |
| ARGUS2 | 2026-08-30 12:27:38 | 27.74654 | -82.68357 | 268° | 62km/h | 24896m | 6.3m/s | -52.0°C | 0% | 0hPa | 0V | 00:00:00 | 00:00:00 | 00:00:00 | |
| ARGUS2 | 2026-08-30 12:27:18 | 27.74630 | -82.68027 | 286° | 46km/h | 24781m | 6.6m/s | -52.4°C | 0% | 0hPa | 0V | 00:00:00 | 00:00:00 | 00:00:00 | |
| ARGUS2 | 2026-08-30 12:26:58 | 27.74613 | -82.67737 | 286° | 57km/h | 24672m | 6.0m/s | -52.6°C | 0% | 0hPa | 0V | 00:00:00 | 00:00:00 | 00:00:00 | |
| ARGUS2 | 2026-08-30 12:26:37 | 27.74599 | -82.67440 | 285° | 51km/h | 24561m | 4.9m/s | -52.3°C | 0% | 0hPa | 0V | 00:00:00 | 00:00:00 | 00:00:00 | |
| ARGUS2 | 2026-08-30 12:26:16 | 27.74577 | -82.67144 | 273° | 55km/h | 24453m | 6.2m/s | -52.1°C | 0% | 0hPa | 0V | 00:00:00 | 00:00:00 | 00:00:00 | |
| ARGUS2 | 2026-08-30 12:25:56 | 27.74558 | -82.66835 | 260° | 62km/h | 24341m | 0.1m/s | -52.1°C | 0% | 0hPa | 0V | 00:00:00 | 00:00:00 | 00:00:00 | |
| ARGUS2 | 2026-08-30 12:25:35 | 27.74532 | -82.66547 | 300° | 51km/h | 24235m | 7.1m/s | -51.8°C | 0% | 0hPa | 0V | 00:00:00 | 00:00:00 | 00:00:00 | |
| ARGUS2 | 2026-08-30 12:25:15 | 27.74462 | -82.66265 | 294° | 40km/h | 24119m | 7.5m/s | -51.8°C | 0% | 0hPa | 0V | 00:00:00 | 00:00:00 | 00:00:00 | |
| ARGUS2 | 2026-08-30 12:24:54 | 27.74345 | -82.65980 | 300° | 64km/h | 24005m | 4.9m/s | -51.2°C | 0% | 0hPa | 0V | 00:00:00 | 00:00:00 | 00:00:00 | |
| ARGUS2 | 2026-08-30 12:24:33 | 27.74232 | -82.65726 | 304° | 53km/h | 23887m | 6.9m/s | -51.2°C | 0% | 0hPa | 0V | 00:00:00 | 00:00:00 | 00:00:00 | |
| ARGUS2 | 2026-08-30 12:24:12 | 27.74092 | -82.65479 | 307° | 53km/h | 23764m | 6.5m/s | -52.2°C | 0% | 0hPa | 0V | 00:00:00 | 00:00:00 | 00:00:00 | |
| ARGUS2 | 2026-08-30 12:23:32 | 27.73813 | -82.64863 | 299° | 62km/h | 23514m | 4.2m/s | -51.7°C | 0% | 0hPa | 0V | 00:00:00 | 00:00:00 | 00:00:00 | |
| ARGUS2 | 2026-08-30 12:23:11 | 27.73741 | -82.64523 | 286° | 69km/h | 23397m | 5.5m/s | -51.5°C | 0% | 0hPa | 0V | 00:00:00 | 00:00:00 | 00:00:00 | |
| ARGUS2 | 2026-08-30 12:22:51 | 27.73684 | -82.64098 | 279° | 64km/h | 23276m | 6.1m/s | -51.9°C | 0% | 0hPa | 0V | 00:00:00 | 00:00:00 | 00:00:00 | |
| ARGUS2 | 2026-08-30 12:22:10 | 27.73647 | -82.63325 | 275° | 62km/h | 23042m | 7.0m/s | -53.4°C | 0% | 0hPa | 0V | 00:00:00 | 00:00:00 | 00:00:00 | |
| ARGUS2 | 2026-08-30 12:21:50 | 27.73602 | -82.62958 | 279° | 77km/h | 22928m | 6.2m/s | -54.6°C | 0% | 0hPa | 0V | 00:00:00 | 00:00:00 | 00:00:00 | |
| ARGUS2 | 2026-08-30 12:21:29 | 27.73580 | -82.62544 | 269° | 66km/h | 22809m | 5.2m/s | -54.7°C | 0% | 0hPa | 0V | 00:00:00 | 00:00:00 | 00:00:00 | |
| ARGUS2 | 2026-08-30 12:21:09 | 27.73644 | -82.62207 | 259° | 57km/h | 22694m | 6.6m/s | -55.4°C | 0% | 0hPa | 0V | 00:00:00 | 00:00:00 | 00:00:00 | |
| ARGUS2 | 2026-08-30 12:20:48 | 27.73677 | -82.61864 | 264° | 57km/h | 22572m | 5.0m/s | -56.7°C | 0% | 0hPa | 0V | 00:00:00 | 00:00:00 | 00:00:00 | |
| ARGUS2 | 2026-08-30 12:20:27 | 27.73727 | -82.61536 | 258° | 60km/h | 22457m | 6.4m/s | -57.0°C | 0% | 0hPa | 0V | 00:00:00 | 00:00:00 | 00:00:00 | |
| ARGUS2 | 2026-08-30 12:20:07 | 27.73769 | -82.61197 | 279° | 71km/h | 22339m | 3.1m/s | -57.2°C | 0% | 0hPa | 0V | 00:00:00 | 00:00:00 | 00:00:00 | |
| ARGUS2 | 2026-08-30 12:19:45 | 27.73778 | -82.60856 | 259° | 58km/h | 22222m | 5.7m/s | -56.5°C | 0% | 0hPa | 0V | 00:00:00 | 00:00:00 | 00:00:00 | |
| ARGUS2 | 2026-08-30 12:19:25 | 27.73789 | -82.60471 | 273° | 84km/h | 22113m | 4.3m/s | -56.7°C | 0% | 0hPa | 0V | 00:00:00 | 00:00:00 | 00:00:00 | |
| ARGUS2 | 2026-08-30 12:19:04 | 27.73810 | -82.60027 | 262° | 64km/h | 21999m | 6.7m/s | -56.2°C | 0% | 0hPa | 0V | 00:00:00 | 00:00:00 | 00:00:00 | |
| ARGUS2 | 2026-08-30 12:18:24 | 27.73828 | -82.59372 | 267° | 49km/h | 21786m | 5.7m/s | -57.6°C | 0% | 0hPa | 0V | 00:00:00 | 00:00:00 | 00:00:00 | |
| ARGUS2 | 2026-08-30 12:18:03 | 27.73884 | -82.59081 | 247° | 46km/h | 21685m | 6.2m/s | -58.1°C | 0% | 0hPa | 0V | 00:00:00 | 00:00:00 | 00:00:00 | |
| ARGUS2 | 2026-08-30 12:17:22 | 27.73871 | -82.58640 | 298° | 42km/h | 21476m | 5.7m/s | -59.2°C | 0% | 0hPa | 0V | 00:00:00 | 00:00:00 | 00:00:00 | |
| ARGUS2 | 2026-08-30 12:17:02 | 27.73823 | -82.58414 | 288° | 44km/h | 21371m | 4.5m/s | -59.0°C | 0% | 0hPa | 0V | 00:00:00 | 00:00:00 | 00:00:00 | |
| ARGUS2 | 2026-08-30 12:16:41 | 27.73800 | -82.58160 | 275° | 55km/h | 21266m | 6.4m/s | -59.9°C | 0% | 0hPa | 0V | 00:00:00 | 00:00:00 | 00:00:00 | |
| ARGUS2 | 2026-08-30 12:16:21 | 27.73753 | -82.57853 | 287° | 66km/h | 21157m | 4.8m/s | -60.5°C | 0% | 0hPa | 0V | 00:00:00 | 00:00:00 | 00:00:00 | |
| ARGUS2 | 2026-08-30 12:16:00 | 27.73639 | -82.57521 | 293° | 77km/h | 21056m | 5.0m/s | -60.3°C | 0% | 0hPa | 0V | 00:00:00 | 00:00:00 | 00:00:00 | |
| ARGUS2 | 2026-08-30 12:15:40 | 27.73536 | -82.57133 | 281° | 66km/h | 20948m | 6.0m/s | -61.0°C | 0% | 0hPa | 0V | 00:00:00 | 00:00:00 | 00:00:00 | |
| ARGUS2 | 2026-08-30 12:15:19 | 27.73507 | -82.56734 | 269° | 77km/h | 20845m | 5.6m/s | -60.5°C | 0% | 0hPa | 0V | 00:00:00 | 00:00:00 | 00:00:00 | |
| ARGUS2 | 2026-08-30 12:14:59 | 27.73516 | -82.56325 | 264° | 60km/h | 20739m | 5.5m/s | -61.3°C | 0% | 0hPa | 0V | 00:00:00 | 00:00:00 | 00:00:00 | |
| ARGUS2 | 2026-08-30 12:14:18 | 27.73579 | -82.55545 | 264° | 82km/h | 20533m | 5.6m/s | -61.4°C | 0% | 0hPa | 0V | 00:00:00 | 00:00:00 | 00:00:00 | |
| ARGUS2 | 2026-08-30 12:13:58 | 27.73644 | -82.55175 | 254° | 69km/h | 20426m | 4.3m/s | -61.1°C | 0% | 0hPa | 0V | 00:00:00 | 00:00:00 | 00:00:00 | |
| ARGUS2 | 2026-08-30 12:13:37 | 27.73732 | -82.54849 | 255° | 53km/h | 20320m | 4.5m/s | -60.8°C | 0% | 0hPa | 0V | 00:00:00 | 00:00:00 | 00:00:00 | |
| ARGUS2 | 2026-08-30 12:13:15 | 27.73817 | -82.54518 | 261° | 64km/h | 20215m | 5.0m/s | -61.0°C | 0% | 0hPa | 0V | 00:00:00 | 00:00:00 | 00:00:00 | |
| ARGUS2 | 2026-08-30 12:12:55 | 27.73921 | -82.54193 | 250° | 55km/h | 20121m | 5.7m/s | -61.4°C | 0% | 0hPa | 0V | 00:00:00 | 00:00:00 | 00:00:00 | |
| ARGUS2 | 2026-08-30 12:12:35 | 27.74026 | -82.53896 | 252° | 62km/h | 20024m | 4.9m/s | -61.7°C | 0% | 0hPa | 0V | 00:00:00 | 00:00:00 | 00:00:00 | |
| ARGUS2 | 2026-08-30 12:12:14 | 27.74151 | -82.53672 | 225° | 47km/h | 19930m | 5.3m/s | -62.0°C | 0% | 0hPa | 0V | 00:00:00 | 00:00:00 | 00:00:00 | |
| ARGUS2 | 2026-08-30 12:11:54 | 27.74296 | -82.53538 | 202° | 31km/h | 19828m | 3.1m/s | -62.2°C | 0% | 0hPa | 0V | 00:00:00 | 00:00:00 | 00:00:00 | |
| ARGUS2 | 2026-08-30 12:11:33 | 27.74406 | -82.53450 | 228° | 26km/h | 19735m | 3.5m/s | -62.6°C | 0% | 0hPa | 0V | 00:00:00 | 00:00:00 | 00:00:00 | |
| ARGUS2 | 2026-08-30 12:11:13 | 27.74477 | -82.53384 | 271° | 11km/h | 19636m | 6.0m/s | -64.6°C | 0% | 0hPa | 0V | 00:00:00 | 00:00:00 | 00:00:00 | |
| ARGUS2 | 2026-08-30 12:10:53 | 27.74488 | -82.53290 | 252° | 18km/h | 19540m | 5.1m/s | -64.7°C | 0% | 0hPa | 0V | 00:00:00 | 00:00:00 | 00:00:00 | |
| ARGUS2 | 2026-08-30 12:10:32 | 27.74468 | -82.53136 | 275° | 37km/h | 19435m | 5.3m/s | -64.4°C | 0% | 0hPa | 0V | 00:00:00 | 00:00:00 | 00:00:00 | |
| ARGUS2 | 2026-08-30 12:10:11 | 27.74467 | -82.52933 | 285° | 29km/h | 19337m | 5.9m/s | -64.2°C | 0% | 0hPa | 0V | 00:00:00 | 00:00:00 | 00:00:00 | |
| ARGUS2 | 2026-08-30 12:09:51 | 27.74504 | -82.52697 | 224° | 53km/h | 19205m | 6.1m/s | -63.9°C | 0% | 0hPa | 0V | 00:00:00 | 00:00:00 | 00:00:00 | |
| ARGUS2 | 2026-08-30 12:09:30 | 27.74659 | -82.52482 | 225° | 46km/h | 19092m | 5.6m/s | -63.9°C | 0% | 0hPa | 0V | 00:00:00 | 00:00:00 | 00:00:00 | |
| ARGUS2 | 2026-08-30 12:09:09 | 27.74829 | -82.52302 | 224° | 37km/h | 18988m | 5.3m/s | -64.0°C | 0% | 0hPa | 0V | 00:00:00 | 00:00:00 | 00:00:00 | |
| ARGUS2 | 2026-08-30 12:08:49 | 27.75019 | -82.52175 | 206° | 35km/h | 18875m | 4.5m/s | -63.7°C | 0% | 0hPa | 0V | 00:00:00 | 00:00:00 | 00:00:00 | |
| ARGUS2 | 2026-08-30 12:08:28 | 27.75177 | -82.52073 | 215° | 44km/h | 18771m | 5.1m/s | -63.0°C | 0% | 0hPa | 0V | 00:00:00 | 00:00:00 | 00:00:00 | |
| ARGUS2 | 2026-08-30 12:08:07 | 27.75324 | -82.52002 | 175° | 33km/h | 18654m | 5.7m/s | -62.2°C | 0% | 0hPa | 0V | 00:00:00 | 00:00:00 | 00:00:00 | |
| ARGUS2 | 2026-08-30 12:07:47 | 27.75423 | -82.51942 | 225° | 9km/h | 18545m | 4.5m/s | -63.3°C | 0% | 0hPa | 0V | 00:00:00 | 00:00:00 | 00:00:00 | |
| ARGUS2 | 2026-08-30 12:07:27 | 27.75418 | -82.51908 | 346° | 5km/h | 18441m | 6.0m/s | -64.4°C | 0% | 0hPa | 0V | 00:00:00 | 00:00:00 | 00:00:00 | |
| ARGUS2 | 2026-08-30 12:07:06 | 27.75352 | -82.51884 | 319° | 20km/h | 18342m | 5.4m/s | -64.3°C | 0% | 0hPa | 0V | 00:00:00 | 00:00:00 | 00:00:00 | |
| ARGUS2 | 2026-08-30 12:06:46 | 27.75267 | -82.51796 | 315° | 29km/h | 18240m | 5.6m/s | -65.6°C | 0% | 0hPa | 0V | 00:00:00 | 00:00:00 | 00:00:00 | |
| ARGUS2 | 2026-08-30 12:06:25 | 27.75168 | -82.51645 | 302° | 35km/h | 18146m | 5.1m/s | -65.4°C | 0% | 0hPa | 0V | 00:00:00 | 00:00:00 | 00:00:00 | |
| ARGUS2 | 2026-08-30 12:06:04 | 27.75097 | -82.51499 | 284° | 26km/h | 18050m | 4.8m/s | -65.8°C | 0% | 0hPa | 0V | 00:00:00 | 00:00:00 | 00:00:00 | |
| ARGUS2 | 2026-08-30 12:05:44 | 27.75060 | -82.51392 | 262° | 16km/h | 17957m | 6.0m/s | -66.1°C | 0% | 0hPa | 0V | 00:00:00 | 00:00:00 | 00:00:00 | |
| ARGUS2 | 2026-08-30 12:05:24 | 27.75043 | -82.51328 | 302° | 15km/h | 17858m | 5.3m/s | -66.3°C | 0% | 0hPa | 0V | 00:00:00 | 00:00:00 | 00:00:00 | |
| ARGUS2 | 2026-08-30 12:05:03 | 27.74978 | -82.51269 | 337° | 29km/h | 17766m | 4.0m/s | -66.4°C | 0% | 0hPa | 0V | 00:00:00 | 00:00:00 | 00:00:00 | |
| ARGUS2 | 2026-08-30 12:04:43 | 27.74892 | -82.51175 | 329° | 22km/h | 17667m | 4.0m/s | -66.0°C | 0% | 0hPa | 0V | 00:00:00 | 00:00:00 | 00:00:00 | |
| ARGUS2 | 2026-08-30 12:04:21 | 27.74837 | -82.51063 | 305° | 22km/h | 17570m | 5.2m/s | -65.6°C | 0% | 0hPa | 0V | 00:00:00 | 00:00:00 | 00:00:00 | |
| ARGUS2 | 2026-08-30 12:04:01 | 27.74807 | -82.50948 | 288° | 22km/h | 17478m | 4.4m/s | -66.6°C | 0% | 0hPa | 0V | 00:00:00 | 00:00:00 | 00:00:00 | |
| ARGUS2 | 2026-08-30 12:03:40 | 27.74762 | -82.50865 | 305° | 11km/h | 17383m | 3.6m/s | -67.2°C | 0% | 0hPa | 0V | 00:00:00 | 00:00:00 | 00:00:00 | |
| ARGUS2 | 2026-08-30 12:03:20 | 27.74686 | -82.50821 | 343° | 22km/h | 17293m | 3.4m/s | -67.2°C | 0% | 0hPa | 0V | 00:00:00 | 00:00:00 | 00:00:00 | |
| ARGUS2 | 2026-08-30 12:02:59 | 27.74567 | -82.50758 | 342° | 33km/h | 17200m | 5.7m/s | -66.9°C | 0% | 0hPa | 0V | 00:00:00 | 00:00:00 | 00:00:00 | |
| ARGUS2 | 2026-08-30 12:02:39 | 27.74411 | -82.50678 | 325° | 37km/h | 17104m | 5.0m/s | -66.4°C | 0% | 0hPa | 0V | 00:00:00 | 00:00:00 | 00:00:00 | |
| ARGUS2 | 2026-08-30 12:02:19 | 27.74229 | -82.50554 | 332° | 47km/h | 17002m | 4.4m/s | -65.9°C | 0% | 0hPa | 0V | 00:00:00 | 00:00:00 | 00:00:00 | |
| ARGUS2 | 2026-08-30 12:01:58 | 27.74060 | -82.50397 | 318° | 44km/h | 16903m | 5.1m/s | -65.5°C | 0% | 0hPa | 0V | 00:00:00 | 00:00:00 | 00:00:00 | |
| ARGUS2 | 2026-08-30 12:01:38 | 27.73922 | -82.50241 | 0° | 0km/h | 16794m | 3.6m/s | -64.9°C | 0% | 0hPa | 0V | 00:00:00 | 00:00:00 | 00:00:00 | |
| ARGUS2 | 2026-08-30 12:01:17 | 27.73817 | -82.50111 | 311° | 55km/h | 16688m | 3.0m/s | -64.3°C | 0% | 0hPa | 0V | 00:00:00 | 00:00:00 | 00:00:00 | |
| ARGUS2 | 2026-08-30 12:00:57 | 27.73743 | -82.50051 | 330° | 18km/h | 16587m | 5.2m/s | -64.8°C | 0% | 0hPa | 0V | 00:00:00 | 00:00:00 | 00:00:00 | |
| ARGUS2 | 2026-08-30 12:00:36 | 27.73710 | -82.50010 | 329° | 7km/h | 16496m | 4.0m/s | -65.5°C | 0% | 0hPa | 0V | 00:00:00 | 00:00:00 | 00:00:00 | |
| ARGUS2 | 2026-08-30 12:00:17 | 27.73668 | -82.50001 | 338° | 5km/h | 16398m | 3.7m/s | -66.8°C | 0% | 0hPa | 0V | 00:00:00 | 00:00:00 | 00:00:00 | |
| ARGUS2 | 2026-08-30 11:59:55 | 27.73633 | -82.49963 | 335° | 11km/h | 16305m | 5.5m/s | -66.7°C | 0% | 0hPa | 0V | 00:00:00 | 00:00:00 | 00:00:00 | |
| ARGUS2 | 2026-08-30 11:59:35 | 27.73636 | -82.49915 | 202° | 11km/h | 16206m | 5.5m/s | -67.2°C | 0% | 0hPa | 0V | 00:00:00 | 00:00:00 | 00:00:00 | |
| ARGUS2 | 2026-08-30 11:59:14 | 27.73677 | -82.49892 | 167° | 7km/h | 16105m | 6.2m/s | -67.0°C | 0% | 0hPa | 0V | 00:00:00 | 00:00:00 | 00:00:00 | |
| ARGUS2 | 2026-08-30 11:58:53 | 27.73715 | -82.49885 | 179° | 15km/h | 16009m | 4.7m/s | -66.4°C | 0% | 0hPa | 0V | 00:00:00 | 00:00:00 | 00:00:00 | |
| ARGUS2 | 2026-08-30 11:58:32 | 27.73787 | -82.49854 | 175° | 5km/h | 15908m | 4.7m/s | -65.8°C | 0% | 0hPa | 0V | 00:00:00 | 00:00:00 | 00:00:00 | |
| ARGUS2 | 2026-08-30 11:58:12 | 27.73889 | -82.49799 | 191° | 33km/h | 15808m | 3.7m/s | -65.2°C | 0% | 0hPa | 0V | 00:00:00 | 00:00:00 | 00:00:00 | |
| ARGUS2 | 2026-08-30 11:57:52 | 27.74021 | -82.49741 | 187° | 37km/h | 15718m | 4.8m/s | -65.2°C | 0% | 0hPa | 0V | 00:00:00 | 00:00:00 | 00:00:00 | |
| ARGUS2 | 2026-08-30 11:57:31 | 27.74159 | -82.49681 | 192° | 29km/h | 15631m | 5.1m/s | -65.1°C | 0% | 0hPa | 0V | 00:00:00 | 00:00:00 | 00:00:00 | |
| ARGUS2 | 2026-08-30 11:57:11 | 27.74315 | -82.49644 | 206° | 38km/h | 15541m | 3.6m/s | -65.2°C | 0% | 0hPa | 0V | 00:00:00 | 00:00:00 | 00:00:00 | |
| ARGUS2 | 2026-08-30 11:56:50 | 27.74456 | -82.49646 | 172° | 18km/h | 15456m | 4.6m/s | -65.3°C | 0% | 0hPa | 0V | 00:00:00 | 00:00:00 | 00:00:00 | |
| ARGUS2 | 2026-08-30 11:56:30 | 27.74559 | -82.49651 | 152° | 7km/h | 15359m | 3.4m/s | -65.6°C | 0% | 0hPa | 0V | 00:00:00 | 00:00:00 | 00:00:00 | |
| ARGUS2 | 2026-08-30 11:56:09 | 27.74609 | -82.49641 | 249° | 7km/h | 15277m | 5.2m/s | -69.5°C | 0% | 0hPa | 0V | 00:00:00 | 00:00:00 | 00:00:00 | |
| ARGUS2 | 2026-08-30 11:55:49 | 27.74648 | -82.49648 | 157° | 11km/h | 15185m | 4.9m/s | -70.3°C | 0% | 0hPa | 0V | 00:00:00 | 00:00:00 | 00:00:00 | |
| ARGUS2 | 2026-08-30 11:55:28 | 27.74683 | -82.49690 | 153° | 11km/h | 15094m | 5.5m/s | -70.1°C | 0% | 0hPa | 0V | 00:00:00 | 00:00:00 | 00:00:00 | |
| ARGUS2 | 2026-08-30 11:55:08 | 27.74727 | -82.49749 | 112° | 15km/h | 14997m | 5.0m/s | -69.5°C | 0% | 0hPa | 0V | 00:00:00 | 00:00:00 | 00:00:00 | |
| ARGUS2 | 2026-08-30 11:54:47 | 27.74773 | -82.49817 | 126° | 20km/h | 14904m | 4.9m/s | -68.8°C | 0% | 0hPa | 0V | 00:00:00 | 00:00:00 | 00:00:00 | |
| ARGUS2 | 2026-08-30 11:54:27 | 27.74816 | -82.49887 | 140° | 11km/h | 14804m | 3.6m/s | -68.0°C | 0% | 0hPa | 0V | 00:00:00 | 00:00:00 | 00:00:00 | |
| ARGUS2 | 2026-08-30 11:54:05 | 27.74863 | -82.49958 | 138° | 18km/h | 14704m | 5.7m/s | -67.4°C | 0% | 0hPa | 0V | 00:00:00 | 00:00:00 | 00:00:00 | |
| ARGUS2 | 2026-08-30 11:53:45 | 27.74909 | -82.50014 | 194° | 7km/h | 14608m | 4.7m/s | -66.7°C | 0% | 0hPa | 0V | 00:00:00 | 00:00:00 | 00:00:00 | |
| ARGUS2 | 2026-08-30 11:53:25 | 27.74918 | -82.50070 | 79° | 22km/h | 14498m | 3.4m/s | -66.1°C | 0% | 0hPa | 0V | 00:00:00 | 00:00:00 | 00:00:00 | |
| ARGUS2 | 2026-08-30 11:53:04 | 27.74911 | -82.50119 | 339° | 5km/h | 14407m | 5.2m/s | -66.1°C | 0% | 0hPa | 0V | 00:00:00 | 00:00:00 | 00:00:00 | |
| ARGUS2 | 2026-08-30 11:52:44 | 27.74901 | -82.50153 | 54° | 15km/h | 14313m | 3.3m/s | -65.6°C | 0% | 0hPa | 0V | 00:00:00 | 00:00:00 | 00:00:00 | |
| ARGUS2 | 2026-08-30 11:52:23 | 27.74864 | -82.50152 | 10° | 15km/h | 14221m | 4.0m/s | -65.6°C | 0% | 0hPa | 0V | 00:00:00 | 00:00:00 | 00:00:00 | |
| ARGUS2 | 2026-08-30 11:52:03 | 27.74836 | -82.50148 | 76° | 5km/h | 14130m | 3.9m/s | -65.4°C | 0% | 0hPa | 0V | 00:00:00 | 00:00:00 | 00:00:00 | |
| ARGUS2 | 2026-08-30 11:51:42 | 27.74807 | -82.50151 | 68° | 4km/h | 14042m | 4.0m/s | -64.7°C | 0% | 0hPa | 0V | 00:00:00 | 00:00:00 | 00:00:00 | |
| ARGUS2 | 2026-08-30 11:51:21 | 27.74788 | -82.50153 | 7° | 4km/h | 13950m | 5.6m/s | -63.9°C | 0% | 0hPa | 0V | 00:00:00 | 00:00:00 | 00:00:00 | |
| ARGUS2 | 2026-08-30 11:51:01 | 27.74776 | -82.50159 | 26° | 7km/h | 13860m | 4.2m/s | -63.2°C | 0% | 0hPa | 0V | 00:00:00 | 00:00:00 | 00:00:00 | |
| ARGUS2 | 2026-08-30 11:50:41 | 27.74736 | -82.50136 | 292° | 9km/h | 13763m | 3.3m/s | -62.7°C | 0% | 0hPa | 0V | 00:00:00 | 00:00:00 | 00:00:00 | |
| ARGUS2 | 2026-08-30 11:50:20 | 27.74708 | -82.50078 | 310° | 11km/h | 13669m | 5.7m/s | -62.0°C | 0% | 0hPa | 0V | 00:00:00 | 00:00:00 | 00:00:00 | |
| ARGUS2 | 2026-08-30 11:50:00 | 27.74692 | -82.50013 | 258° | 5km/h | 13575m | 3.0m/s | -61.3°C | 0% | 0hPa | 0V | 00:00:00 | 00:00:00 | 00:00:00 | |
| ARGUS2 | 2026-08-30 11:49:38 | 27.74664 | -82.49947 | 314° | 11km/h | 13483m | 3.7m/s | -60.5°C | 0% | 0hPa | 0V | 00:00:00 | 00:00:00 | 00:00:00 | |
| ARGUS2 | 2026-08-30 11:49:18 | 27.74617 | -82.49882 | 312° | 9km/h | 13394m | 3.6m/s | -60.0°C | 0% | 0hPa | 0V | 00:00:00 | 00:00:00 | 00:00:00 | |
| ARGUS2 | 2026-08-30 11:48:58 | 27.74533 | -82.49821 | 346° | 15km/h | 13302m | 4.9m/s | -59.5°C | 0% | 0hPa | 0V | 00:00:00 | 00:00:00 | 00:00:00 | |
| ARGUS2 | 2026-08-30 11:48:37 | 27.74451 | -82.49779 | 356° | 16km/h | 13214m | 4.9m/s | -58.8°C | 0% | 0hPa | 0V | 00:00:00 | 00:00:00 | 00:00:00 | |
| ARGUS2 | 2026-08-30 11:48:16 | 27.74356 | -82.49753 | 323° | 18km/h | 13120m | 4.8m/s | -58.1°C | 0% | 0hPa | 0V | 00:00:00 | 00:00:00 | 00:00:00 | |
| ARGUS2 | 2026-08-30 11:47:56 | 27.74257 | -82.49717 | 360° | 18km/h | 13027m | 3.9m/s | -57.3°C | 0% | 0hPa | 0V | 00:00:00 | 00:00:00 | 00:00:00 | |
| ARGUS2 | 2026-08-30 11:47:35 | 27.74170 | -82.49693 | 2° | 20km/h | 12925m | 4.7m/s | -56.4°C | 0% | 0hPa | 0V | 00:00:00 | 00:00:00 | 00:00:00 | |
| ARGUS2 | 2026-08-30 11:47:15 | 27.74083 | -82.49657 | 326° | 20km/h | 12821m | 5.2m/s | -55.5°C | 0% | 0hPa | 0V | 00:00:00 | 00:00:00 | 00:00:00 | |
| ARGUS2 | 2026-08-30 11:46:54 | 27.73979 | -82.49617 | 322° | 26km/h | 12713m | 4.1m/s | -54.5°C | 0% | 0hPa | 0V | 00:00:00 | 00:00:00 | 00:00:00 | |
| ARGUS2 | 2026-08-30 11:46:34 | 27.73882 | -82.49573 | 327° | 20km/h | 12621m | 5.6m/s | -53.7°C | 0% | 0hPa | 0V | 00:00:00 | 00:00:00 | 00:00:00 | |
| ARGUS2 | 2026-08-30 11:46:14 | 27.73796 | -82.49532 | 19° | 16km/h | 12530m | 4.7m/s | -52.8°C | 0% | 0hPa | 0V | 00:00:00 | 00:00:00 | 00:00:00 | |
| ARGUS2 | 2026-08-30 11:45:53 | 27.73705 | -82.49497 | 11° | 13km/h | 12442m | 5.1m/s | -52.0°C | 0% | 0hPa | 0V | 00:00:00 | 00:00:00 | 00:00:00 | |
| ARGUS2 | 2026-08-30 11:45:33 | 27.73639 | -82.49432 | 307° | 15km/h | 12334m | 3.6m/s | -51.1°C | 0% | 0hPa | 0V | 00:00:00 | 00:00:00 | 00:00:00 | |
| ARGUS2 | 2026-08-30 11:45:12 | 27.73562 | -82.49349 | 312° | 24km/h | 12243m | 5.3m/s | -50.3°C | 0% | 0hPa | 0V | 00:00:00 | 00:00:00 | 00:00:00 | |
| ARGUS2 | 2026-08-30 11:44:52 | 27.73486 | -82.49248 | 322° | 24km/h | 12152m | 4.5m/s | -49.5°C | 0% | 0hPa | 0V | 00:00:00 | 00:00:00 | 00:00:00 | |
| ARGUS2 | 2026-08-30 11:44:31 | 27.73402 | -82.49140 | 308° | 26km/h | 12069m | 3.6m/s | -48.8°C | 0% | 0hPa | 0V | 00:00:00 | 00:00:00 | 00:00:00 | |
| ARGUS2 | 2026-08-30 11:44:11 | 27.73308 | -82.49020 | 316° | 24km/h | 11976m | 2.8m/s | -48.1°C | 0% | 0hPa | 0V | 00:00:00 | 00:00:00 | 00:00:00 | |
| ARGUS2 | 2026-08-30 11:43:49 | 27.73224 | -82.48882 | 299° | 24km/h | 11882m | 3.4m/s | -47.3°C | 0% | 0hPa | 0V | 00:00:00 | 00:00:00 | 00:00:00 | |
| ARGUS2 | 2026-08-30 11:43:29 | 27.73151 | -82.48736 | 288° | 33km/h | 11799m | 3.2m/s | -46.7°C | 0% | 0hPa | 0V | 00:00:00 | 00:00:00 | 00:00:00 | |
| ARGUS2 | 2026-08-30 11:43:09 | 27.73083 | -82.48593 | 290° | 26km/h | 11705m | 4.5m/s | -46.0°C | 0% | 0hPa | 0V | 00:00:00 | 00:00:00 | 00:00:00 | |
| ARGUS2 | 2026-08-30 11:42:48 | 27.73022 | -82.48454 | 298° | 35km/h | 11622m | 3.8m/s | -45.4°C | 0% | 0hPa | 0V | 00:00:00 | 00:00:00 | 00:00:00 | |
| ARGUS2 | 2026-08-30 11:42:07 | 27.72903 | -82.48155 | 290° | 26km/h | 11446m | 3.5m/s | -44.1°C | 0% | 0hPa | 0V | 00:00:00 | 00:00:00 | 00:00:00 | |
| ARGUS2 | 2026-08-30 11:41:47 | 27.72825 | -82.47995 | 335° | 37km/h | 11354m | 4.8m/s | -43.2°C | 0% | 0hPa | 0V | 00:00:00 | 00:00:00 | 00:00:00 | |
| ARGUS2 | 2026-08-30 11:41:26 | 27.72745 | -82.47853 | 287° | 16km/h | 11245m | 3.9m/s | -42.1°C | 0% | 0hPa | 0V | 00:00:00 | 00:00:00 | 00:00:00 | |
| ARGUS2 | 2026-08-30 11:41:06 | 27.72678 | -82.47714 | 297° | 18km/h | 11144m | 3.9m/s | -41.2°C | 0% | 0hPa | 0V | 00:00:00 | 00:00:00 | 00:00:00 | |
| ARGUS2 | 2026-08-30 11:40:45 | 27.72606 | -82.47590 | 302° | 29km/h | 11058m | 2.5m/s | -40.5°C | 0% | 0hPa | 0V | 00:00:00 | 00:00:00 | 00:00:00 | |
| ARGUS2 | 2026-08-30 11:40:25 | 27.72510 | -82.47471 | 304° | 22km/h | 10972m | 3.5m/s | -39.9°C | 0% | 0hPa | 0V | 00:00:00 | 00:00:00 | 00:00:00 | |
| ARGUS2 | 2026-08-30 11:40:04 | 27.72416 | -82.47342 | 301° | 27km/h | 10892m | 3.3m/s | -39.2°C | 0% | 0hPa | 0V | 00:00:00 | 00:00:00 | 00:00:00 | |
| ARGUS2 | 2026-08-30 11:39:44 | 27.72330 | -82.47207 | 316° | 31km/h | 10807m | 3.6m/s | -38.5°C | 0% | 0hPa | 0V | 00:00:00 | 00:00:00 | 00:00:00 | |
| ARGUS2 | 2026-08-30 11:39:22 | 27.72245 | -82.47068 | 306° | 31km/h | 10726m | 4.6m/s | -38.3°C | 0% | 0hPa | 0V | 00:00:00 | 00:00:00 | 00:00:00 | |
| ARGUS2 | 2026-08-30 11:39:02 | 27.72182 | -82.46929 | 301° | 31km/h | 10646m | 4.1m/s | -37.7°C | 0% | 0hPa | 0V | 00:00:00 | 00:00:00 | 00:00:00 | |
| ARGUS2 | 2026-08-30 11:38:41 | 27.72121 | -82.46757 | 297° | 26km/h | 10558m | 5.2m/s | -37.1°C | 0% | 0hPa | 0V | 00:00:00 | 00:00:00 | 00:00:00 | |
| ARGUS2 | 2026-08-30 11:38:21 | 27.72090 | -82.46598 | 277° | 38km/h | 10473m | 3.3m/s | -36.3°C | 0% | 0hPa | 0V | 00:00:00 | 00:00:00 | 00:00:00 | |
| ARGUS2 | 2026-08-30 11:38:00 | 27.72068 | -82.46436 | 281° | 22km/h | 10381m | 4.5m/s | -35.6°C | 0% | 0hPa | 0V | 00:00:00 | 00:00:00 | 00:00:00 | |
| ARGUS2 | 2026-08-30 11:37:41 | 27.72052 | -82.46301 | 271° | 31km/h | 10298m | 4.3m/s | -34.8°C | 0% | 0hPa | 0V | 00:00:00 | 00:00:00 | 00:00:00 | |
| ARGUS2 | 2026-08-30 11:37:19 | 27.72031 | -82.46136 | 274° | 31km/h | 10206m | 4.2m/s | -34.2°C | 0% | 0hPa | 0V | 00:00:00 | 00:00:00 | 00:00:00 | |
| ARGUS2 | 2026-08-30 11:36:59 | 27.72012 | -82.45990 | 289° | 22km/h | 10117m | 5.2m/s | -33.6°C | 0% | 0hPa | 0V | 00:00:00 | 00:00:00 | 00:00:00 | |
| ARGUS2 | 2026-08-30 11:36:39 | 27.71994 | -82.45851 | 291° | 20km/h | 10023m | 4.1m/s | -32.9°C | 0% | 0hPa | 0V | 00:00:00 | 00:00:00 | 00:00:00 | |
| ARGUS2 | 2026-08-30 11:36:18 | 27.71951 | -82.45725 | 311° | 22km/h | 9933m | 4.9m/s | -32.3°C | 0% | 0hPa | 0V | 00:00:00 | 00:00:00 | 00:00:00 | |
| ARGUS2 | 2026-08-30 11:35:58 | 27.71918 | -82.45602 | 292° | 20km/h | 9840m | 4.6m/s | -31.6°C | 0% | 0hPa | 0V | 00:00:00 | 00:00:00 | 00:00:00 | |
| ARGUS2 | 2026-08-30 11:35:37 | 27.71886 | -82.45490 | 283° | 18km/h | 9751m | 4.2m/s | -31.0°C | 0% | 0hPa | 0V | 00:00:00 | 00:00:00 | 00:00:00 | |
| ARGUS2 | 2026-08-30 11:35:17 | 27.71843 | -82.45367 | 289° | 18km/h | 9655m | 3.9m/s | -30.3°C | 0% | 0hPa | 0V | 00:00:00 | 00:00:00 | 00:00:00 | |
| ARGUS2 | 2026-08-30 11:34:57 | 27.71808 | -82.45240 | 271° | 31km/h | 9566m | 4.0m/s | -29.7°C | 0% | 0hPa | 0V | 00:00:00 | 00:00:00 | 00:00:00 | |
| ARGUS2 | 2026-08-30 11:34:36 | 27.71788 | -82.45110 | 275° | 16km/h | 9469m | 4.2m/s | -28.9°C | 0% | 0hPa | 0V | 00:00:00 | 00:00:00 | 00:00:00 | |
| ARGUS2 | 2026-08-30 11:34:14 | 27.71771 | -82.45011 | 227° | 24km/h | 9335m | 9.1m/s | -27.6°C | 0% | 0hPa | 0V | 00:00:00 | 00:00:00 | 00:00:00 | |
| ARGUS2 | 2026-08-30 11:33:54 | 27.71769 | -82.44934 | 259° | 15km/h | 9205m | 7.7m/s | -26.6°C | 0% | 0hPa | 0V | 00:00:00 | 00:00:00 | 00:00:00 | |
| ARGUS2 | 2026-08-30 11:33:34 | 27.71769 | -82.44899 | 203° | 11km/h | 9091m | 5.6m/s | -25.8°C | 0% | 0hPa | 0V | 00:00:00 | 00:00:00 | 00:00:00 | |
| ARGUS2 | 2026-08-30 11:33:13 | 27.71794 | -82.44871 | 210° | 7km/h | 9000m | 3.9m/s | -25.1°C | 0% | 0hPa | 0V | 00:00:00 | 00:00:00 | 00:00:00 | |
| ARGUS2 | 2026-08-30 11:32:53 | 27.71824 | -82.44832 | 223° | 9km/h | 8910m | 2.7m/s | -24.8°C | 0% | 0hPa | 0V | 00:00:00 | 00:00:00 | 00:00:00 | |
| ARGUS2 | 2026-08-30 11:32:32 | 27.71860 | -82.44798 | 170° | 13km/h | 8823m | 5.2m/s | -24.1°C | 0% | 0hPa | 0V | 00:00:00 | 00:00:00 | 00:00:00 | |
| ARGUS2 | 2026-08-30 11:32:12 | 27.71909 | -82.44781 | 204° | 13km/h | 8735m | 4.9m/s | -23.4°C | 0% | 0hPa | 0V | 00:00:00 | 00:00:00 | 00:00:00 | |
| ARGUS2 | 2026-08-30 11:31:51 | 27.71949 | -82.44763 | 179° | 9km/h | 8651m | 4.4m/s | -22.7°C | 0% | 0hPa | 0V | 00:00:00 | 00:00:00 | 00:00:00 | |
| ARGUS2 | 2026-08-30 11:31:31 | 27.71989 | -82.44737 | 198° | 4km/h | 8567m | 4.0m/s | -22.1°C | 0% | 0hPa | 0V | 00:00:00 | 00:00:00 | 00:00:00 | |
| ARGUS2 | 2026-08-30 11:31:10 | 27.72026 | -82.44706 | 204° | 15km/h | 8488m | 3.6m/s | -21.4°C | 0% | 0hPa | 0V | 00:00:00 | 00:00:00 | 00:00:00 | |
| ARGUS2 | 2026-08-30 11:30:50 | 27.72067 | -82.44675 | 0° | 0km/h | 8409m | 3.4m/s | -20.9°C | 0% | 0hPa | 0V | 00:00:00 | 00:00:00 | 00:00:00 | |
| ARGUS2 | 2026-08-30 11:30:29 | 27.72088 | -82.44636 | 260° | 9km/h | 8330m | 3.9m/s | -20.3°C | 0% | 0hPa | 0V | 00:00:00 | 00:00:00 | 00:00:00 | |
| ARGUS2 | 2026-08-30 11:30:09 | 27.72094 | -82.44608 | 196° | 11km/h | 8244m | 4.8m/s | -20.0°C | 0% | 0hPa | 0V | 00:00:00 | 00:00:00 | 00:00:00 | |
| ARGUS2 | 2026-08-30 11:29:49 | 27.72109 | -82.44540 | 250° | 22km/h | 8154m | 5.7m/s | -19.4°C | 0% | 0hPa | 0V | 00:00:00 | 00:00:00 | 00:00:00 | |
| ARGUS2 | 2026-08-30 11:29:28 | 27.72129 | -82.44469 | 231° | 5km/h | 8051m | 5.1m/s | -18.6°C | 0% | 0hPa | 0V | 00:00:00 | 00:00:00 | 00:00:00 | |
| ARGUS2 | 2026-08-30 11:29:06 | 27.72142 | -82.44366 | 283° | 31km/h | 7963m | 4.0m/s | -18.1°C | 0% | 0hPa | 0V | 00:00:00 | 00:00:00 | 00:00:00 | |
| ARGUS2 | 2026-08-30 11:28:38 | 27.72128 | -82.44249 | 216° | 5km/h | 7819m | 4.7m/s | -17.0°C | 0% | 0hPa | 0V | 00:00:00 | 00:00:00 | 00:00:00 | |
| ARGUS2 | 2026-08-30 11:28:17 | 27.72140 | -82.44198 | 234° | 13km/h | 7737m | 4.6m/s | -16.3°C | 0% | 0hPa | 0V | 00:00:00 | 00:00:00 | 00:00:00 | |
| ARGUS2 | 2026-08-30 11:27:56 | 27.72149 | -82.44151 | 0° | 0km/h | 7659m | 3.6m/s | -15.5°C | 0% | 0hPa | 0V | 00:00:00 | 00:00:00 | 00:00:00 | |
| ARGUS2 | 2026-08-30 11:27:36 | 27.72153 | -82.44092 | 258° | 18km/h | 7574m | 5.5m/s | -15.1°C | 0% | 0hPa | 0V | 00:00:00 | 00:00:00 | 00:00:00 | |
| ARGUS2 | 2026-08-30 11:27:15 | 27.72172 | -82.44026 | 239° | 18km/h | 7492m | 4.5m/s | -14.6°C | 0% | 0hPa | 0V | 00:00:00 | 00:00:00 | 00:00:00 | |
| ARGUS2 | 2026-08-30 11:26:55 | 27.72205 | -82.43947 | 255° | 20km/h | 7408m | 5.3m/s | -14.0°C | 0% | 0hPa | 0V | 00:00:00 | 00:00:00 | 00:00:00 | |
| ARGUS2 | 2026-08-30 11:26:33 | 27.72240 | -82.43867 | 267° | 15km/h | 7316m | 4.1m/s | -13.9°C | 0% | 0hPa | 0V | 00:00:00 | 00:00:00 | 00:00:00 | |
| ARGUS2 | 2026-08-30 11:26:13 | 27.72254 | -82.43780 | 212° | 13km/h | 7235m | 3.9m/s | -13.4°C | 0% | 0hPa | 0V | 00:00:00 | 00:00:00 | 00:00:00 | |
| ARGUS2 | 2026-08-30 11:25:52 | 27.72279 | -82.43706 | 260° | 11km/h | 7153m | 3.2m/s | -13.0°C | 0% | 0hPa | 0V | 00:00:00 | 00:00:00 | 00:00:00 | |
| ARGUS2 | 2026-08-30 11:25:32 | 27.72294 | -82.43638 | 272° | 18km/h | 7070m | 4.4m/s | -12.5°C | 0% | 0hPa | 0V | 00:00:00 | 00:00:00 | 00:00:00 | |
| ARGUS2 | 2026-08-30 11:25:11 | 27.72308 | -82.43580 | 272° | 4km/h | 6983m | 3.8m/s | -12.0°C | 0% | 0hPa | 0V | 00:00:00 | 00:00:00 | 00:00:00 | |
| ARGUS2 | 2026-08-30 11:24:51 | 27.72317 | -82.43505 | 285° | 24km/h | 6902m | 4.2m/s | -11.5°C | 0% | 0hPa | 0V | 00:00:00 | 00:00:00 | 00:00:00 | |
| ARGUS2 | 2026-08-30 11:24:31 | 27.72330 | -82.43394 | 285° | 24km/h | 6810m | 5.0m/s | -10.7°C | 0% | 0hPa | 0V | 00:00:00 | 00:00:00 | 00:00:00 | |
| ARGUS2 | 2026-08-30 11:24:10 | 27.72336 | -82.43286 | 269° | 26km/h | 6723m | 4.5m/s | -10.2°C | 0% | 0hPa | 0V | 00:00:00 | 00:00:00 | 00:00:00 | |
| ARGUS2 | 2026-08-30 11:23:49 | 27.72351 | -82.43198 | 269° | 9km/h | 6632m | 4.5m/s | -9.6°C | 0% | 0hPa | 0V | 00:00:00 | 00:00:00 | 00:00:00 | |
| ARGUS2 | 2026-08-30 11:23:29 | 27.72359 | -82.43120 | 283° | 16km/h | 6544m | 5.6m/s | -9.2°C | 0% | 0hPa | 0V | 00:00:00 | 00:00:00 | 00:00:00 | |
| ARGUS2 | 2026-08-30 11:23:08 | 27.72376 | -82.43030 | 258° | 18km/h | 6452m | 3.4m/s | -8.5°C | 0% | 0hPa | 0V | 00:00:00 | 00:00:00 | 00:00:00 | |
| ARGUS2 | 2026-08-30 11:22:48 | 27.72391 | -82.42963 | 296° | 4km/h | 6368m | 5.0m/s | -8.0°C | 0% | 0hPa | 0V | 00:00:00 | 00:00:00 | 00:00:00 | |
| ARGUS2 | 2026-08-30 11:22:28 | 27.72406 | -82.42918 | 128° | 5km/h | 6265m | 6.1m/s | -7.7°C | 0% | 0hPa | 0V | 00:00:00 | 00:00:00 | 00:00:00 | |
| ARGUS2 | 2026-08-30 11:22:06 | 27.72436 | -82.42829 | 249° | 24km/h | 6152m | 4.4m/s | -7.8°C | 0% | 0hPa | 0V | 00:00:00 | 00:00:00 | 00:00:00 | |
| ARGUS2 | 2026-08-30 11:21:46 | 27.72440 | -82.42786 | 326° | 5km/h | 6053m | 4.7m/s | -7.2°C | 0% | 0hPa | 0V | 00:00:00 | 00:00:00 | 00:00:00 | |
| ARGUS2 | 2026-08-30 11:21:26 | 27.72453 | -82.42736 | 260° | 11km/h | 5951m | 4.0m/s | -6.6°C | 0% | 0hPa | 0V | 00:00:00 | 00:00:00 | 00:00:00 | |
| ARGUS2 | 2026-08-30 11:21:05 | 27.72456 | -82.42690 | 307° | 4km/h | 5839m | 4.3m/s | -5.7°C | 0% | 0hPa | 0V | 00:00:00 | 00:00:00 | 00:00:00 | |
| ARGUS2 | 2026-08-30 11:20:44 | 27.72454 | -82.42651 | 291° | 13km/h | 5742m | 4.2m/s | -4.8°C | 0% | 0hPa | 0V | 00:00:00 | 00:00:00 | 00:00:00 | |
| ARGUS2 | 2026-08-30 11:20:23 | 27.72446 | -82.42631 | 286° | 9km/h | 5642m | 4.3m/s | -4.0°C | 0% | 0hPa | 0V | 00:00:00 | 00:00:00 | 00:00:00 | |
| ARGUS2 | 2026-08-30 11:20:02 | 27.72441 | -82.42586 | 220° | 7km/h | 5546m | 5.5m/s | -3.3°C | 0% | 0hPa | 0V | 00:00:00 | 00:00:00 | 00:00:00 | |
| ARGUS2 | 2026-08-30 11:19:27 | 27.72473 | -82.42542 | 45° | 9km/h | 5370m | 5.6m/s | -2.7°C | 0% | 0hPa | 0V | 00:00:00 | 00:00:00 | 00:00:00 | |
| ARGUS2 | 2026-08-30 11:19:05 | 27.72438 | -82.42481 | 305° | 18km/h | 5259m | 5.9m/s | -2.2°C | 0% | 0hPa | 0V | 00:00:00 | 00:00:00 | 00:00:00 | |
| ARGUS2 | 2026-08-30 11:18:35 | 27.72374 | -82.42393 | 298° | 16km/h | 5118m | 3.8m/s | -1.3°C | 0% | 0hPa | 0V | 00:00:00 | 00:00:00 | 00:00:00 | |
| ARGUS2 | 2026-08-30 11:18:06 | 27.72305 | -82.42306 | 352° | 16km/h | 4976m | 4.8m/s | -0.7°C | 0% | 0hPa | 0V | 00:00:00 | 00:00:00 | 00:00:00 | |
| ARGUS2 | 2026-08-30 11:17:46 | 27.72270 | -82.42269 | 8° | 13km/h | 4856m | 4.1m/s | 0.3°C | 0% | 0hPa | 0V | 00:00:00 | 00:00:00 | 00:00:00 | |
| ARGUS2 | 2026-08-30 11:17:25 | 27.72254 | -82.42239 | 206° | 11km/h | 4744m | 8.3m/s | -0.0°C | 0% | 0hPa | 0V | 00:00:00 | 00:00:00 | 00:00:00 | |
| ARGUS2 | 2026-08-30 11:17:05 | 27.72293 | -82.42211 | 212° | 20km/h | 4631m | 5.1m/s | 0.1°C | 0% | 0hPa | 0V | 00:00:00 | 00:00:00 | 00:00:00 | |
| ARGUS2 | 2026-08-30 11:16:44 | 27.72343 | -82.42221 | 230° | 15km/h | 4532m | 6.0m/s | 0.8°C | 0% | 0hPa | 0V | 00:00:00 | 00:00:00 | 00:00:00 | |
| ARGUS2 | 2026-08-30 11:16:24 | 27.72408 | -82.42226 | 150° | 15km/h | 4422m | 5.4m/s | 1.1°C | 0% | 0hPa | 0V | 00:00:00 | 00:00:00 | 00:00:00 | |
| ARGUS2 | 2026-08-30 11:16:03 | 27.72450 | -82.42261 | 214° | 2km/h | 4330m | 4.8m/s | 1.2°C | 0% | 0hPa | 0V | 00:00:00 | 00:00:00 | 00:00:00 | |
| ARGUS2 | 2026-08-30 11:15:43 | 27.72527 | -82.42265 | 258° | 7km/h | 4225m | 3.8m/s | 1.7°C | 0% | 0hPa | 0V | 00:00:00 | 00:00:00 | 00:00:00 | |
| ARGUS2 | 2026-08-30 11:15:21 | 27.72562 | -82.42302 | 210° | 18km/h | 4109m | 5.2m/s | 1.8°C | 0% | 0hPa | 0V | 00:00:00 | 00:00:00 | 00:00:00 | |
| ARGUS2 | 2026-08-30 11:15:01 | 27.72567 | -82.42300 | 332° | 5km/h | 3987m | 7.1m/s | 2.7°C | 0% | 0hPa | 0V | 00:00:00 | 00:00:00 | 00:00:00 | |
| ARGUS2 | 2026-08-30 11:14:41 | 27.72546 | -82.42236 | 304° | 24km/h | 3879m | 4.3m/s | 3.3°C | 0% | 0hPa | 0V | 00:00:00 | 00:00:00 | 00:00:00 | |
| ARGUS2 | 2026-08-30 11:14:20 | 27.72499 | -82.42217 | 20° | 20km/h | 3766m | 6.4m/s | 4.1°C | 0% | 0hPa | 0V | 00:00:00 | 00:00:00 | 00:00:00 | |
| ARGUS2 | 2026-08-30 11:13:59 | 27.72452 | -82.42186 | 275° | 18km/h | 3647m | 5.0m/s | 5.1°C | 0% | 0hPa | 0V | 00:00:00 | 00:00:00 | 00:00:00 | |
| ARGUS2 | 2026-08-30 11:13:39 | 27.72378 | -82.42156 | 355° | 33km/h | 3540m | 5.6m/s | 6.0°C | 0% | 0hPa | 0V | 00:00:00 | 00:00:00 | 00:00:00 | |
| ARGUS2 | 2026-08-30 11:13:18 | 27.72313 | -82.42134 | 252° | 13km/h | 3426m | 6.0m/s | 6.7°C | 0% | 0hPa | 0V | 00:00:00 | 00:00:00 | 00:00:00 | |
| ARGUS2 | 2026-08-30 11:12:58 | 27.72267 | -82.42096 | 35° | 20km/h | 3318m | 5.4m/s | 7.7°C | 0% | 0hPa | 0V | 00:00:00 | 00:00:00 | 00:00:00 | |
| ARGUS2 | 2026-08-30 11:12:38 | 27.72215 | -82.42078 | 300° | 7km/h | 3204m | 5.3m/s | 8.2°C | 0% | 0hPa | 0V | 00:00:00 | 00:00:00 | 00:00:00 | |
| ARGUS2 | 2026-08-30 11:12:17 | 27.72186 | -82.42062 | 246° | 7km/h | 3105m | 4.2m/s | 8.8°C | 0% | 0hPa | 0V | 00:00:00 | 00:00:00 | 00:00:00 | |
| ARGUS2 | 2026-08-30 11:11:57 | 27.72127 | -82.42071 | 6° | 18km/h | 3008m | 5.0m/s | 9.2°C | 0% | 0hPa | 0V | 00:00:00 | 00:00:00 | 00:00:00 | |
| ARGUS2 | 2026-08-30 11:11:35 | 27.72096 | -82.42078 | 78° | 9km/h | 2890m | 5.2m/s | 9.7°C | 0% | 0hPa | 0V | 00:00:00 | 00:00:00 | 00:00:00 | |
| ARGUS2 | 2026-08-30 11:11:14 | 27.72026 | -82.42070 | 302° | 18km/h | 2781m | 4.1m/s | 10.3°C | 0% | 0hPa | 0V | 00:00:00 | 00:00:00 | 00:00:00 | |
| ARGUS2 | 2026-08-30 11:10:53 | 27.72014 | -82.42050 | 342° | 15km/h | 2665m | 6.9m/s | 11.3°C | 0% | 0hPa | 0V | 00:00:00 | 00:00:00 | 00:00:00 | |
| ARGUS2 | 2026-08-30 11:08:54 | 27.71775 | -82.41595 | 9° | 7km/h | 2117m | 2.5m/s | 14.7°C | 0% | 0hPa | 0V | 00:00:00 | 00:00:00 | 00:00:00 | |
| ARGUS2 | 2026-08-30 11:08:33 | 27.71740 | -82.41530 | 272° | 24km/h | 2027m | 4.6m/s | 15.0°C | 0% | 0hPa | 0V | 00:00:00 | 00:00:00 | 00:00:00 | |
| ARGUS2 | 2026-08-30 11:08:13 | 27.71733 | -82.41459 | 224° | 13km/h | 1924m | 6.3m/s | 15.6°C | 0% | 0hPa | 0V | 00:00:00 | 00:00:00 | 00:00:00 | |
| ARGUS2 | 2026-08-30 11:07:52 | 27.71724 | -82.41357 | 280° | 29km/h | 1819m | 3.8m/s | 16.1°C | 0% | 0hPa | 0V | 00:00:00 | 00:00:00 | 00:00:00 | |
| ARGUS2 | 2026-08-30 11:07:29 | 27.71702 | -82.41286 | 96° | 5km/h | 1698m | 4.2m/s | 16.4°C | 0% | 0hPa | 0V | 00:00:00 | 00:00:00 | 00:00:00 | |
| ARGUS2 | 2026-08-30 11:07:08 | 27.71656 | -82.41251 | 180° | 9km/h | 1589m | 6.4m/s | 17.3°C | 0% | 0hPa | 0V | 00:00:00 | 00:00:00 | 00:00:00 | |
| ARGUS2 | 2026-08-30 11:06:47 | 27.71616 | -82.41236 | 278° | 16km/h | 1486m | 7.1m/s | 18.1°C | 0% | 0hPa | 0V | 00:00:00 | 00:00:00 | 00:00:00 | |
| ARGUS2 | 2026-08-30 11:06:26 | 27.71581 | -82.41226 | 287° | 13km/h | 1367m | 4.7m/s | 18.6°C | 0% | 0hPa | 0V | 00:00:00 | 00:00:00 | 00:00:00 | |
| ARGUS2 | 2026-08-30 11:06:05 | 27.71501 | -82.41216 | 49° | 13km/h | 1265m | 4.9m/s | 19.3°C | 0% | 0hPa | 0V | 00:00:00 | 00:00:00 | 00:00:00 |